<?xml version="1.0" encoding="UTF-8" standalone="no" ?>
<gpx xmlns="http://www.topografix.com/GPX/1/1" xmlns:xsi="http://www.w3.org/2001/XMLSchema-instance" xsi:schemaLocation="http://www.topografix.com/GPX/1/1 http://www.topografix.com/GPX/1/1/gpx.xsd" version="1.1" creator="VisuGPX - https://www.visugpx.com">
  <metadata>
    <name>Rando du Tacot VTT</name>
    <desc><![CDATA[Parcours VTT 51 km assez difficile]]></desc>
  </metadata>
  <trk>
    <name><![CDATA[7940002-TACOT 52KM 2018]]></name>
    <trkseg>
      <trkpt lat="45.17403" lon="5.2191">
        <ele>366</ele>
        <time>2018-03-08T16:44:57Z</time>
      </trkpt>
      <trkpt lat="45.17411" lon="5.21862">
        <ele>367</ele>
        <time>2018-03-08T16:45:57Z</time>
      </trkpt>
      <trkpt lat="45.17417" lon="5.21832">
        <ele>367</ele>
        <time>2018-03-08T16:46:57Z</time>
      </trkpt>
      <trkpt lat="45.17429" lon="5.21803">
        <ele>367</ele>
        <time>2018-03-08T16:47:57Z</time>
      </trkpt>
      <trkpt lat="45.17437" lon="5.21791">
        <ele>368</ele>
        <time>2018-03-08T16:48:57Z</time>
      </trkpt>
      <trkpt lat="45.17441" lon="5.21773">
        <ele>368</ele>
        <time>2018-03-08T16:49:57Z</time>
      </trkpt>
      <trkpt lat="45.17457" lon="5.21754">
        <ele>369</ele>
        <time>2018-03-08T16:50:57Z</time>
      </trkpt>
      <trkpt lat="45.17466" lon="5.21751">
        <ele>370</ele>
        <time>2018-03-08T16:51:57Z</time>
      </trkpt>
      <trkpt lat="45.17478" lon="5.21747">
        <ele>371</ele>
        <time>2018-03-08T16:52:57Z</time>
      </trkpt>
      <trkpt lat="45.17488" lon="5.21741">
        <ele>372</ele>
        <time>2018-03-08T16:53:57Z</time>
      </trkpt>
      <trkpt lat="45.17489" lon="5.21751">
        <ele>373</ele>
        <time>2018-03-08T16:54:57Z</time>
      </trkpt>
      <trkpt lat="45.1751" lon="5.21738">
        <ele>374</ele>
        <time>2018-03-08T16:55:57Z</time>
      </trkpt>
      <trkpt lat="45.17517" lon="5.21745">
        <ele>375</ele>
        <time>2018-03-08T16:56:57Z</time>
      </trkpt>
      <trkpt lat="45.17587" lon="5.21643">
        <ele>377</ele>
        <time>2018-03-08T16:57:57Z</time>
      </trkpt>
      <trkpt lat="45.17632" lon="5.21702">
        <ele>382</ele>
        <time>2018-03-08T16:58:57Z</time>
      </trkpt>
      <trkpt lat="45.17656" lon="5.21674">
        <ele>382</ele>
        <time>2018-03-08T16:59:57Z</time>
      </trkpt>
      <trkpt lat="45.17671" lon="5.21656">
        <ele>382</ele>
        <time>2018-03-08T17:00:57Z</time>
      </trkpt>
      <trkpt lat="45.17696" lon="5.21632">
        <ele>381</ele>
        <time>2018-03-08T17:01:57Z</time>
      </trkpt>
      <trkpt lat="45.17711" lon="5.21608">
        <ele>380</ele>
        <time>2018-03-08T17:02:57Z</time>
      </trkpt>
      <trkpt lat="45.17728" lon="5.21609">
        <ele>381</ele>
        <time>2018-03-08T17:03:57Z</time>
      </trkpt>
      <trkpt lat="45.17743" lon="5.21623">
        <ele>383</ele>
        <time>2018-03-08T17:04:57Z</time>
      </trkpt>
      <trkpt lat="45.17752" lon="5.21642">
        <ele>385</ele>
        <time>2018-03-08T17:05:57Z</time>
      </trkpt>
      <trkpt lat="45.17771" lon="5.21687">
        <ele>390</ele>
        <time>2018-03-08T17:06:57Z</time>
      </trkpt>
      <trkpt lat="45.17774" lon="5.21726">
        <ele>393</ele>
        <time>2018-03-08T17:07:57Z</time>
      </trkpt>
      <trkpt lat="45.17776" lon="5.21753">
        <ele>395</ele>
        <time>2018-03-08T17:08:57Z</time>
      </trkpt>
      <trkpt lat="45.1778" lon="5.21815">
        <ele>401</ele>
        <time>2018-03-08T17:09:57Z</time>
      </trkpt>
      <trkpt lat="45.17786" lon="5.21849">
        <ele>405</ele>
        <time>2018-03-08T17:10:57Z</time>
      </trkpt>
      <trkpt lat="45.17858" lon="5.22035">
        <ele>428</ele>
        <time>2018-03-08T17:11:57Z</time>
      </trkpt>
      <trkpt lat="45.17875" lon="5.22061">
        <ele>431</ele>
        <time>2018-03-08T17:12:57Z</time>
      </trkpt>
      <trkpt lat="45.17898" lon="5.22094">
        <ele>434</ele>
        <time>2018-03-08T17:13:57Z</time>
      </trkpt>
      <trkpt lat="45.17955" lon="5.2218">
        <ele>438</ele>
        <time>2018-03-08T17:14:57Z</time>
      </trkpt>
      <trkpt lat="45.17994" lon="5.22261">
        <ele>440</ele>
        <time>2018-03-08T17:15:57Z</time>
      </trkpt>
      <trkpt lat="45.18026" lon="5.22343">
        <ele>438</ele>
        <time>2018-03-08T17:16:57Z</time>
      </trkpt>
      <trkpt lat="45.1807" lon="5.22445">
        <ele>439</ele>
        <time>2018-03-08T17:17:57Z</time>
      </trkpt>
      <trkpt lat="45.18103" lon="5.2244">
        <ele>439</ele>
        <time>2018-03-08T17:18:57Z</time>
      </trkpt>
      <trkpt lat="45.18124" lon="5.22439">
        <ele>439</ele>
        <time>2018-03-08T17:19:57Z</time>
      </trkpt>
      <trkpt lat="45.18144" lon="5.22439">
        <ele>439</ele>
        <time>2018-03-08T17:20:57Z</time>
      </trkpt>
      <trkpt lat="45.18161" lon="5.22443">
        <ele>440</ele>
        <time>2018-03-08T17:21:57Z</time>
      </trkpt>
      <trkpt lat="45.18177" lon="5.22448">
        <ele>440</ele>
        <time>2018-03-08T17:22:57Z</time>
      </trkpt>
      <trkpt lat="45.1819" lon="5.2246">
        <ele>440</ele>
        <time>2018-03-08T17:23:57Z</time>
      </trkpt>
      <trkpt lat="45.1821" lon="5.22474">
        <ele>440</ele>
        <time>2018-03-08T17:24:57Z</time>
      </trkpt>
      <trkpt lat="45.18234" lon="5.22489">
        <ele>439</ele>
        <time>2018-03-08T17:25:57Z</time>
      </trkpt>
      <trkpt lat="45.18262" lon="5.22506">
        <ele>439</ele>
        <time>2018-03-08T17:26:57Z</time>
      </trkpt>
      <trkpt lat="45.18275" lon="5.22509">
        <ele>439</ele>
        <time>2018-03-08T17:27:57Z</time>
      </trkpt>
      <trkpt lat="45.18296" lon="5.22508">
        <ele>439</ele>
        <time>2018-03-08T17:28:57Z</time>
      </trkpt>
      <trkpt lat="45.18299" lon="5.22556">
        <ele>438</ele>
        <time>2018-03-08T17:29:57Z</time>
      </trkpt>
      <trkpt lat="45.18295" lon="5.22612">
        <ele>438</ele>
        <time>2018-03-08T17:30:57Z</time>
      </trkpt>
      <trkpt lat="45.18292" lon="5.22648">
        <ele>438</ele>
        <time>2018-03-08T17:31:57Z</time>
      </trkpt>
      <trkpt lat="45.18284" lon="5.22666">
        <ele>437</ele>
        <time>2018-03-08T17:32:57Z</time>
      </trkpt>
      <trkpt lat="45.1826" lon="5.2269">
        <ele>435</ele>
        <time>2018-03-08T17:33:57Z</time>
      </trkpt>
      <trkpt lat="45.18252" lon="5.22701">
        <ele>434</ele>
        <time>2018-03-08T17:34:57Z</time>
      </trkpt>
      <trkpt lat="45.18247" lon="5.22715">
        <ele>434</ele>
        <time>2018-03-08T17:35:57Z</time>
      </trkpt>
      <trkpt lat="45.18237" lon="5.2273">
        <ele>434</ele>
        <time>2018-03-08T17:36:57Z</time>
      </trkpt>
      <trkpt lat="45.18233" lon="5.22751">
        <ele>434</ele>
        <time>2018-03-08T17:37:57Z</time>
      </trkpt>
      <trkpt lat="45.18235" lon="5.2278">
        <ele>434</ele>
        <time>2018-03-08T17:38:57Z</time>
      </trkpt>
      <trkpt lat="45.18241" lon="5.22807">
        <ele>434</ele>
        <time>2018-03-08T17:39:57Z</time>
      </trkpt>
      <trkpt lat="45.18243" lon="5.22845">
        <ele>433</ele>
        <time>2018-03-08T17:40:57Z</time>
      </trkpt>
      <trkpt lat="45.18244" lon="5.22877">
        <ele>432</ele>
        <time>2018-03-08T17:41:57Z</time>
      </trkpt>
      <trkpt lat="45.18238" lon="5.22902">
        <ele>431</ele>
        <time>2018-03-08T17:42:57Z</time>
      </trkpt>
      <trkpt lat="45.18236" lon="5.22924">
        <ele>430</ele>
        <time>2018-03-08T17:43:57Z</time>
      </trkpt>
      <trkpt lat="45.18225" lon="5.22951">
        <ele>427</ele>
        <time>2018-03-08T17:44:57Z</time>
      </trkpt>
      <trkpt lat="45.18191" lon="5.23013">
        <ele>420</ele>
        <time>2018-03-08T17:45:57Z</time>
      </trkpt>
      <trkpt lat="45.18186" lon="5.23046">
        <ele>418</ele>
        <time>2018-03-08T17:46:57Z</time>
      </trkpt>
      <trkpt lat="45.18186" lon="5.2308">
        <ele>417</ele>
        <time>2018-03-08T17:47:57Z</time>
      </trkpt>
      <trkpt lat="45.18132" lon="5.23109">
        <ele>414</ele>
        <time>2018-03-08T17:48:57Z</time>
      </trkpt>
      <trkpt lat="45.18071" lon="5.23123">
        <ele>413</ele>
        <time>2018-03-08T17:49:57Z</time>
      </trkpt>
      <trkpt lat="45.18023" lon="5.23123">
        <ele>411</ele>
        <time>2018-03-08T17:50:57Z</time>
      </trkpt>
      <trkpt lat="45.17905" lon="5.23132">
        <ele>407</ele>
        <time>2018-03-08T17:51:57Z</time>
      </trkpt>
      <trkpt lat="45.17867" lon="5.23138">
        <ele>406</ele>
        <time>2018-03-08T17:52:57Z</time>
      </trkpt>
      <trkpt lat="45.17862" lon="5.23163">
        <ele>405</ele>
        <time>2018-03-08T17:53:57Z</time>
      </trkpt>
      <trkpt lat="45.17851" lon="5.23179">
        <ele>401</ele>
        <time>2018-03-08T17:54:57Z</time>
      </trkpt>
      <trkpt lat="45.17835" lon="5.23206">
        <ele>394</ele>
        <time>2018-03-08T17:55:57Z</time>
      </trkpt>
      <trkpt lat="45.17821" lon="5.23218">
        <ele>392</ele>
        <time>2018-03-08T17:56:57Z</time>
      </trkpt>
      <trkpt lat="45.17798" lon="5.23235">
        <ele>391</ele>
        <time>2018-03-08T17:57:57Z</time>
      </trkpt>
      <trkpt lat="45.17781" lon="5.2325">
        <ele>390</ele>
        <time>2018-03-08T17:58:57Z</time>
      </trkpt>
      <trkpt lat="45.17769" lon="5.23265">
        <ele>388</ele>
        <time>2018-03-08T17:59:57Z</time>
      </trkpt>
      <trkpt lat="45.17772" lon="5.23272">
        <ele>387</ele>
        <time>2018-03-08T18:00:57Z</time>
      </trkpt>
      <trkpt lat="45.17791" lon="5.23269">
        <ele>386</ele>
        <time>2018-03-08T18:01:57Z</time>
      </trkpt>
      <trkpt lat="45.17799" lon="5.23275">
        <ele>385</ele>
        <time>2018-03-08T18:02:57Z</time>
      </trkpt>
      <trkpt lat="45.17803" lon="5.23284">
        <ele>383</ele>
        <time>2018-03-08T18:03:57Z</time>
      </trkpt>
      <trkpt lat="45.17798" lon="5.23298">
        <ele>382</ele>
        <time>2018-03-08T18:04:57Z</time>
      </trkpt>
      <trkpt lat="45.17781" lon="5.23307">
        <ele>381</ele>
        <time>2018-03-08T18:05:57Z</time>
      </trkpt>
      <trkpt lat="45.17748" lon="5.23323">
        <ele>378</ele>
        <time>2018-03-08T18:06:57Z</time>
      </trkpt>
      <trkpt lat="45.17713" lon="5.23333">
        <ele>375</ele>
        <time>2018-03-08T18:07:57Z</time>
      </trkpt>
      <trkpt lat="45.17681" lon="5.23348">
        <ele>375</ele>
        <time>2018-03-08T18:08:57Z</time>
      </trkpt>
      <trkpt lat="45.17664" lon="5.23372">
        <ele>376</ele>
        <time>2018-03-08T18:09:57Z</time>
      </trkpt>
      <trkpt lat="45.17648" lon="5.23388">
        <ele>375</ele>
        <time>2018-03-08T18:10:57Z</time>
      </trkpt>
      <trkpt lat="45.17632" lon="5.23396">
        <ele>375</ele>
        <time>2018-03-08T18:11:57Z</time>
      </trkpt>
      <trkpt lat="45.17595" lon="5.23391">
        <ele>372</ele>
        <time>2018-03-08T18:12:57Z</time>
      </trkpt>
      <trkpt lat="45.17565" lon="5.234">
        <ele>371</ele>
        <time>2018-03-08T18:13:57Z</time>
      </trkpt>
      <trkpt lat="45.17517" lon="5.23417">
        <ele>368</ele>
        <time>2018-03-08T18:14:57Z</time>
      </trkpt>
      <trkpt lat="45.17475" lon="5.23431">
        <ele>370</ele>
        <time>2018-03-08T18:15:57Z</time>
      </trkpt>
      <trkpt lat="45.17393" lon="5.23426">
        <ele>364</ele>
        <time>2018-03-08T18:16:57Z</time>
      </trkpt>
      <trkpt lat="45.17341" lon="5.23414">
        <ele>359</ele>
        <time>2018-03-08T18:17:57Z</time>
      </trkpt>
      <trkpt lat="45.17293" lon="5.23429">
        <ele>358</ele>
        <time>2018-03-08T18:18:57Z</time>
      </trkpt>
      <trkpt lat="45.17255" lon="5.23481">
        <ele>358</ele>
        <time>2018-03-08T18:19:57Z</time>
      </trkpt>
      <trkpt lat="45.17213" lon="5.23598">
        <ele>362</ele>
        <time>2018-03-08T18:20:57Z</time>
      </trkpt>
      <trkpt lat="45.17195" lon="5.23642">
        <ele>361</ele>
        <time>2018-03-08T18:21:57Z</time>
      </trkpt>
      <trkpt lat="45.17166" lon="5.23664">
        <ele>357</ele>
        <time>2018-03-08T18:22:57Z</time>
      </trkpt>
      <trkpt lat="45.17112" lon="5.23682">
        <ele>356</ele>
        <time>2018-03-08T18:23:57Z</time>
      </trkpt>
      <trkpt lat="45.1707" lon="5.2372">
        <ele>358</ele>
        <time>2018-03-08T18:24:57Z</time>
      </trkpt>
      <trkpt lat="45.17066" lon="5.23804">
        <ele>368</ele>
        <time>2018-03-08T18:25:57Z</time>
      </trkpt>
      <trkpt lat="45.17053" lon="5.23858">
        <ele>373</ele>
        <time>2018-03-08T18:26:57Z</time>
      </trkpt>
      <trkpt lat="45.16992" lon="5.23896">
        <ele>371</ele>
        <time>2018-03-08T18:27:57Z</time>
      </trkpt>
      <trkpt lat="45.1697" lon="5.23925">
        <ele>371</ele>
        <time>2018-03-08T18:28:57Z</time>
      </trkpt>
      <trkpt lat="45.16957" lon="5.23964">
        <ele>372</ele>
        <time>2018-03-08T18:29:57Z</time>
      </trkpt>
      <trkpt lat="45.1696" lon="5.24084">
        <ele>379</ele>
        <time>2018-03-08T18:30:57Z</time>
      </trkpt>
      <trkpt lat="45.16972" lon="5.241">
        <ele>379</ele>
        <time>2018-03-08T18:31:57Z</time>
      </trkpt>
      <trkpt lat="45.1704" lon="5.24077">
        <ele>383</ele>
        <time>2018-03-08T18:32:57Z</time>
      </trkpt>
      <trkpt lat="45.17115" lon="5.24063">
        <ele>385</ele>
        <time>2018-03-08T18:33:57Z</time>
      </trkpt>
      <trkpt lat="45.17223" lon="5.24067">
        <ele>390</ele>
        <time>2018-03-08T18:34:57Z</time>
      </trkpt>
      <trkpt lat="45.17313" lon="5.24021">
        <ele>395</ele>
        <time>2018-03-08T18:35:57Z</time>
      </trkpt>
      <trkpt lat="45.17363" lon="5.24009">
        <ele>399</ele>
        <time>2018-03-08T18:36:57Z</time>
      </trkpt>
      <trkpt lat="45.17408" lon="5.24015">
        <ele>402</ele>
        <time>2018-03-08T18:37:57Z</time>
      </trkpt>
      <trkpt lat="45.17534" lon="5.24066">
        <ele>408</ele>
        <time>2018-03-08T18:38:57Z</time>
      </trkpt>
      <trkpt lat="45.17572" lon="5.24072">
        <ele>409</ele>
        <time>2018-03-08T18:39:57Z</time>
      </trkpt>
      <trkpt lat="45.17636" lon="5.23936">
        <ele>417</ele>
        <time>2018-03-08T18:40:57Z</time>
      </trkpt>
      <trkpt lat="45.17662" lon="5.23955">
        <ele>417</ele>
        <time>2018-03-08T18:41:57Z</time>
      </trkpt>
      <trkpt lat="45.17693" lon="5.23962">
        <ele>422</ele>
        <time>2018-03-08T18:42:57Z</time>
      </trkpt>
      <trkpt lat="45.17726" lon="5.23966">
        <ele>427</ele>
        <time>2018-03-08T18:43:57Z</time>
      </trkpt>
      <trkpt lat="45.17743" lon="5.23981">
        <ele>429</ele>
        <time>2018-03-08T18:44:57Z</time>
      </trkpt>
      <trkpt lat="45.17766" lon="5.24024">
        <ele>433</ele>
        <time>2018-03-08T18:45:57Z</time>
      </trkpt>
      <trkpt lat="45.17797" lon="5.24087">
        <ele>436</ele>
        <time>2018-03-08T18:46:57Z</time>
      </trkpt>
      <trkpt lat="45.17811" lon="5.24114">
        <ele>438</ele>
        <time>2018-03-08T18:47:57Z</time>
      </trkpt>
      <trkpt lat="45.17828" lon="5.24135">
        <ele>440</ele>
        <time>2018-03-08T18:48:57Z</time>
      </trkpt>
      <trkpt lat="45.17853" lon="5.2415">
        <ele>443</ele>
        <time>2018-03-08T18:49:57Z</time>
      </trkpt>
      <trkpt lat="45.17873" lon="5.24154">
        <ele>446</ele>
        <time>2018-03-08T18:50:57Z</time>
      </trkpt>
      <trkpt lat="45.1791" lon="5.24149">
        <ele>451</ele>
        <time>2018-03-08T18:51:57Z</time>
      </trkpt>
      <trkpt lat="45.1794" lon="5.24141">
        <ele>456</ele>
        <time>2018-03-08T18:52:57Z</time>
      </trkpt>
      <trkpt lat="45.17965" lon="5.24124">
        <ele>462</ele>
        <time>2018-03-08T18:53:57Z</time>
      </trkpt>
      <trkpt lat="45.17999" lon="5.24117">
        <ele>466</ele>
        <time>2018-03-08T18:54:57Z</time>
      </trkpt>
      <trkpt lat="45.1802" lon="5.24102">
        <ele>471</ele>
        <time>2018-03-08T18:55:57Z</time>
      </trkpt>
      <trkpt lat="45.18036" lon="5.24087">
        <ele>475</ele>
        <time>2018-03-08T18:56:57Z</time>
      </trkpt>
      <trkpt lat="45.18049" lon="5.24089">
        <ele>476</ele>
        <time>2018-03-08T18:57:57Z</time>
      </trkpt>
      <trkpt lat="45.1806" lon="5.24105">
        <ele>475</ele>
        <time>2018-03-08T18:58:57Z</time>
      </trkpt>
      <trkpt lat="45.18067" lon="5.24122">
        <ele>474</ele>
        <time>2018-03-08T18:59:57Z</time>
      </trkpt>
      <trkpt lat="45.18073" lon="5.24141">
        <ele>472</ele>
        <time>2018-03-08T19:00:57Z</time>
      </trkpt>
      <trkpt lat="45.18088" lon="5.24155">
        <ele>473</ele>
        <time>2018-03-08T19:01:57Z</time>
      </trkpt>
      <trkpt lat="45.18101" lon="5.24173">
        <ele>476</ele>
        <time>2018-03-08T19:02:57Z</time>
      </trkpt>
      <trkpt lat="45.18113" lon="5.24196">
        <ele>481</ele>
        <time>2018-03-08T19:03:57Z</time>
      </trkpt>
      <trkpt lat="45.18112" lon="5.24209">
        <ele>481</ele>
        <time>2018-03-08T19:04:57Z</time>
      </trkpt>
      <trkpt lat="45.18099" lon="5.24217">
        <ele>479</ele>
        <time>2018-03-08T19:05:57Z</time>
      </trkpt>
      <trkpt lat="45.18081" lon="5.24228">
        <ele>477</ele>
        <time>2018-03-08T19:06:57Z</time>
      </trkpt>
      <trkpt lat="45.18067" lon="5.24242">
        <ele>476</ele>
        <time>2018-03-08T19:07:57Z</time>
      </trkpt>
      <trkpt lat="45.1806" lon="5.24265">
        <ele>478</ele>
        <time>2018-03-08T19:08:57Z</time>
      </trkpt>
      <trkpt lat="45.18058" lon="5.2429">
        <ele>481</ele>
        <time>2018-03-08T19:09:57Z</time>
      </trkpt>
      <trkpt lat="45.18052" lon="5.2431">
        <ele>483</ele>
        <time>2018-03-08T19:10:57Z</time>
      </trkpt>
      <trkpt lat="45.18033" lon="5.24326">
        <ele>483</ele>
        <time>2018-03-08T19:11:57Z</time>
      </trkpt>
      <trkpt lat="45.18021" lon="5.24335">
        <ele>482</ele>
        <time>2018-03-08T19:12:57Z</time>
      </trkpt>
      <trkpt lat="45.18023" lon="5.24352">
        <ele>481</ele>
        <time>2018-03-08T19:13:57Z</time>
      </trkpt>
      <trkpt lat="45.18039" lon="5.24371">
        <ele>483</ele>
        <time>2018-03-08T19:14:57Z</time>
      </trkpt>
      <trkpt lat="45.18051" lon="5.24392">
        <ele>484</ele>
        <time>2018-03-08T19:15:57Z</time>
      </trkpt>
      <trkpt lat="45.1807" lon="5.24426">
        <ele>487</ele>
        <time>2018-03-08T19:16:57Z</time>
      </trkpt>
      <trkpt lat="45.18091" lon="5.24393">
        <ele>489</ele>
        <time>2018-03-08T19:17:57Z</time>
      </trkpt>
      <trkpt lat="45.18101" lon="5.24383">
        <ele>489</ele>
        <time>2018-03-08T19:18:57Z</time>
      </trkpt>
      <trkpt lat="45.18148" lon="5.24357">
        <ele>489</ele>
        <time>2018-03-08T19:19:57Z</time>
      </trkpt>
      <trkpt lat="45.18232" lon="5.24309">
        <ele>493</ele>
        <time>2018-03-08T19:20:57Z</time>
      </trkpt>
      <trkpt lat="45.18286" lon="5.24281">
        <ele>494</ele>
        <time>2018-03-08T19:21:57Z</time>
      </trkpt>
      <trkpt lat="45.1826" lon="5.24254">
        <ele>495</ele>
        <time>2018-03-08T19:22:57Z</time>
      </trkpt>
      <trkpt lat="45.18254" lon="5.24241">
        <ele>495</ele>
        <time>2018-03-08T19:23:57Z</time>
      </trkpt>
      <trkpt lat="45.18244" lon="5.242">
        <ele>496</ele>
        <time>2018-03-08T19:24:57Z</time>
      </trkpt>
      <trkpt lat="45.1821" lon="5.24058">
        <ele>498</ele>
        <time>2018-03-08T19:25:57Z</time>
      </trkpt>
      <trkpt lat="45.18201" lon="5.2403">
        <ele>498</ele>
        <time>2018-03-08T19:26:57Z</time>
      </trkpt>
      <trkpt lat="45.18183" lon="5.23993">
        <ele>499</ele>
        <time>2018-03-08T19:27:57Z</time>
      </trkpt>
      <trkpt lat="45.18152" lon="5.23941">
        <ele>501</ele>
        <time>2018-03-08T19:28:57Z</time>
      </trkpt>
      <trkpt lat="45.18109" lon="5.23896">
        <ele>501</ele>
        <time>2018-03-08T19:29:57Z</time>
      </trkpt>
      <trkpt lat="45.18082" lon="5.23887">
        <ele>499</ele>
        <time>2018-03-08T19:30:57Z</time>
      </trkpt>
      <trkpt lat="45.18087" lon="5.23849">
        <ele>499</ele>
        <time>2018-03-08T19:31:57Z</time>
      </trkpt>
      <trkpt lat="45.18117" lon="5.23754">
        <ele>485</ele>
        <time>2018-03-08T19:32:57Z</time>
      </trkpt>
      <trkpt lat="45.18149" lon="5.23734">
        <ele>484</ele>
        <time>2018-03-08T19:33:57Z</time>
      </trkpt>
      <trkpt lat="45.1819" lon="5.23719">
        <ele>480</ele>
        <time>2018-03-08T19:34:57Z</time>
      </trkpt>
      <trkpt lat="45.18222" lon="5.23709">
        <ele>476</ele>
        <time>2018-03-08T19:35:57Z</time>
      </trkpt>
      <trkpt lat="45.18224" lon="5.23694">
        <ele>472</ele>
        <time>2018-03-08T19:36:57Z</time>
      </trkpt>
      <trkpt lat="45.18209" lon="5.23675">
        <ele>468</ele>
        <time>2018-03-08T19:37:57Z</time>
      </trkpt>
      <trkpt lat="45.18193" lon="5.23643">
        <ele>461</ele>
        <time>2018-03-08T19:38:57Z</time>
      </trkpt>
      <trkpt lat="45.18176" lon="5.23583">
        <ele>447</ele>
        <time>2018-03-08T19:39:57Z</time>
      </trkpt>
      <trkpt lat="45.18201" lon="5.23572">
        <ele>444</ele>
        <time>2018-03-08T19:40:57Z</time>
      </trkpt>
      <trkpt lat="45.18211" lon="5.23557">
        <ele>441</ele>
        <time>2018-03-08T19:41:57Z</time>
      </trkpt>
      <trkpt lat="45.18202" lon="5.23502">
        <ele>426</ele>
        <time>2018-03-08T19:42:57Z</time>
      </trkpt>
      <trkpt lat="45.18214" lon="5.23509">
        <ele>429</ele>
        <time>2018-03-08T19:43:57Z</time>
      </trkpt>
      <trkpt lat="45.18225" lon="5.23516">
        <ele>432</ele>
        <time>2018-03-08T19:44:57Z</time>
      </trkpt>
      <trkpt lat="45.18236" lon="5.235">
        <ele>429</ele>
        <time>2018-03-08T19:45:57Z</time>
      </trkpt>
      <trkpt lat="45.1825" lon="5.23481">
        <ele>427</ele>
        <time>2018-03-08T19:46:57Z</time>
      </trkpt>
      <trkpt lat="45.18282" lon="5.23465">
        <ele>422</ele>
        <time>2018-03-08T19:47:57Z</time>
      </trkpt>
      <trkpt lat="45.18335" lon="5.23453">
        <ele>417</ele>
        <time>2018-03-08T19:48:57Z</time>
      </trkpt>
      <trkpt lat="45.18377" lon="5.23445">
        <ele>415</ele>
        <time>2018-03-08T19:49:57Z</time>
      </trkpt>
      <trkpt lat="45.18461" lon="5.23435">
        <ele>413</ele>
        <time>2018-03-08T19:50:57Z</time>
      </trkpt>
      <trkpt lat="45.18496" lon="5.23432">
        <ele>413</ele>
        <time>2018-03-08T19:51:57Z</time>
      </trkpt>
      <trkpt lat="45.18514" lon="5.23432">
        <ele>412</ele>
        <time>2018-03-08T19:52:57Z</time>
      </trkpt>
      <trkpt lat="45.18538" lon="5.2344">
        <ele>411</ele>
        <time>2018-03-08T19:53:57Z</time>
      </trkpt>
      <trkpt lat="45.18555" lon="5.23443">
        <ele>410</ele>
        <time>2018-03-08T19:54:57Z</time>
      </trkpt>
      <trkpt lat="45.18571" lon="5.23434">
        <ele>408</ele>
        <time>2018-03-08T19:55:57Z</time>
      </trkpt>
      <trkpt lat="45.18583" lon="5.23419">
        <ele>406</ele>
        <time>2018-03-08T19:56:57Z</time>
      </trkpt>
      <trkpt lat="45.18595" lon="5.23412">
        <ele>406</ele>
        <time>2018-03-08T19:57:57Z</time>
      </trkpt>
      <trkpt lat="45.18645" lon="5.23434">
        <ele>406</ele>
        <time>2018-03-08T19:58:57Z</time>
      </trkpt>
      <trkpt lat="45.1867" lon="5.23444">
        <ele>406</ele>
        <time>2018-03-08T19:59:57Z</time>
      </trkpt>
      <trkpt lat="45.18695" lon="5.23443">
        <ele>407</ele>
        <time>2018-03-08T20:00:57Z</time>
      </trkpt>
      <trkpt lat="45.18718" lon="5.23457">
        <ele>409</ele>
        <time>2018-03-08T20:01:57Z</time>
      </trkpt>
      <trkpt lat="45.18755" lon="5.23485">
        <ele>413</ele>
        <time>2018-03-08T20:02:57Z</time>
      </trkpt>
      <trkpt lat="45.18805" lon="5.23498">
        <ele>418</ele>
        <time>2018-03-08T20:03:57Z</time>
      </trkpt>
      <trkpt lat="45.18838" lon="5.23506">
        <ele>421</ele>
        <time>2018-03-08T20:04:57Z</time>
      </trkpt>
      <trkpt lat="45.18876" lon="5.23549">
        <ele>428</ele>
        <time>2018-03-08T20:05:57Z</time>
      </trkpt>
      <trkpt lat="45.18914" lon="5.23579">
        <ele>438</ele>
        <time>2018-03-08T20:06:57Z</time>
      </trkpt>
      <trkpt lat="45.18956" lon="5.23595">
        <ele>447</ele>
        <time>2018-03-08T20:07:57Z</time>
      </trkpt>
      <trkpt lat="45.18982" lon="5.23614">
        <ele>455</ele>
        <time>2018-03-08T20:08:57Z</time>
      </trkpt>
      <trkpt lat="45.19008" lon="5.23665">
        <ele>466</ele>
        <time>2018-03-08T20:09:57Z</time>
      </trkpt>
      <trkpt lat="45.19028" lon="5.23681">
        <ele>467</ele>
        <time>2018-03-08T20:10:57Z</time>
      </trkpt>
      <trkpt lat="45.19074" lon="5.23708">
        <ele>472</ele>
        <time>2018-03-08T20:11:57Z</time>
      </trkpt>
      <trkpt lat="45.19133" lon="5.23762">
        <ele>478</ele>
        <time>2018-03-08T20:12:57Z</time>
      </trkpt>
      <trkpt lat="45.19179" lon="5.23824">
        <ele>478</ele>
        <time>2018-03-08T20:13:57Z</time>
      </trkpt>
      <trkpt lat="45.19202" lon="5.23842">
        <ele>477</ele>
        <time>2018-03-08T20:14:57Z</time>
      </trkpt>
      <trkpt lat="45.19247" lon="5.23883">
        <ele>478</ele>
        <time>2018-03-08T20:15:57Z</time>
      </trkpt>
      <trkpt lat="45.19283" lon="5.23922">
        <ele>476</ele>
        <time>2018-03-08T20:16:57Z</time>
      </trkpt>
      <trkpt lat="45.19337" lon="5.23982">
        <ele>472</ele>
        <time>2018-03-08T20:17:57Z</time>
      </trkpt>
      <trkpt lat="45.19385" lon="5.23992">
        <ele>470</ele>
        <time>2018-03-08T20:18:57Z</time>
      </trkpt>
      <trkpt lat="45.19427" lon="5.23999">
        <ele>471</ele>
        <time>2018-03-08T20:19:57Z</time>
      </trkpt>
      <trkpt lat="45.19456" lon="5.24">
        <ele>473</ele>
        <time>2018-03-08T20:20:57Z</time>
      </trkpt>
      <trkpt lat="45.19475" lon="5.23998">
        <ele>475</ele>
        <time>2018-03-08T20:21:57Z</time>
      </trkpt>
      <trkpt lat="45.19539" lon="5.2396">
        <ele>481</ele>
        <time>2018-03-08T20:22:57Z</time>
      </trkpt>
      <trkpt lat="45.19583" lon="5.23937">
        <ele>485</ele>
        <time>2018-03-08T20:23:57Z</time>
      </trkpt>
      <trkpt lat="45.19629" lon="5.23933">
        <ele>487</ele>
        <time>2018-03-08T20:24:57Z</time>
      </trkpt>
      <trkpt lat="45.19723" lon="5.23937">
        <ele>490</ele>
        <time>2018-03-08T20:25:57Z</time>
      </trkpt>
      <trkpt lat="45.19735" lon="5.23952">
        <ele>490</ele>
        <time>2018-03-08T20:26:57Z</time>
      </trkpt>
      <trkpt lat="45.1975" lon="5.23944">
        <ele>491</ele>
        <time>2018-03-08T20:27:57Z</time>
      </trkpt>
      <trkpt lat="45.19804" lon="5.23868">
        <ele>498</ele>
        <time>2018-03-08T20:28:57Z</time>
      </trkpt>
      <trkpt lat="45.19837" lon="5.23821">
        <ele>501</ele>
        <time>2018-03-08T20:29:57Z</time>
      </trkpt>
      <trkpt lat="45.19902" lon="5.23705">
        <ele>506</ele>
        <time>2018-03-08T20:30:57Z</time>
      </trkpt>
      <trkpt lat="45.19921" lon="5.23686">
        <ele>507</ele>
        <time>2018-03-08T20:31:57Z</time>
      </trkpt>
      <trkpt lat="45.19957" lon="5.23683">
        <ele>511</ele>
        <time>2018-03-08T20:32:57Z</time>
      </trkpt>
      <trkpt lat="45.20014" lon="5.23684">
        <ele>518</ele>
        <time>2018-03-08T20:33:57Z</time>
      </trkpt>
      <trkpt lat="45.20059" lon="5.23681">
        <ele>523</ele>
        <time>2018-03-08T20:34:57Z</time>
      </trkpt>
      <trkpt lat="45.20082" lon="5.23662">
        <ele>523</ele>
        <time>2018-03-08T20:35:57Z</time>
      </trkpt>
      <trkpt lat="45.20107" lon="5.23603">
        <ele>527</ele>
        <time>2018-03-08T20:36:57Z</time>
      </trkpt>
      <trkpt lat="45.2011" lon="5.23556">
        <ele>528</ele>
        <time>2018-03-08T20:37:57Z</time>
      </trkpt>
      <trkpt lat="45.20095" lon="5.23499">
        <ele>526</ele>
        <time>2018-03-08T20:38:57Z</time>
      </trkpt>
      <trkpt lat="45.20103" lon="5.23464">
        <ele>527</ele>
        <time>2018-03-08T20:39:57Z</time>
      </trkpt>
      <trkpt lat="45.20119" lon="5.23438">
        <ele>530</ele>
        <time>2018-03-08T20:40:57Z</time>
      </trkpt>
      <trkpt lat="45.20132" lon="5.23407">
        <ele>532</ele>
        <time>2018-03-08T20:41:57Z</time>
      </trkpt>
      <trkpt lat="45.20133" lon="5.23377">
        <ele>532</ele>
        <time>2018-03-08T20:42:57Z</time>
      </trkpt>
      <trkpt lat="45.20125" lon="5.23329">
        <ele>529</ele>
        <time>2018-03-08T20:43:57Z</time>
      </trkpt>
      <trkpt lat="45.20122" lon="5.23307">
        <ele>529</ele>
        <time>2018-03-08T20:44:57Z</time>
      </trkpt>
      <trkpt lat="45.20131" lon="5.23281">
        <ele>530</ele>
        <time>2018-03-08T20:45:57Z</time>
      </trkpt>
      <trkpt lat="45.20147" lon="5.23288">
        <ele>531</ele>
        <time>2018-03-08T20:46:57Z</time>
      </trkpt>
      <trkpt lat="45.20204" lon="5.23324">
        <ele>534</ele>
        <time>2018-03-08T20:47:57Z</time>
      </trkpt>
      <trkpt lat="45.20274" lon="5.23378">
        <ele>532</ele>
        <time>2018-03-08T20:48:57Z</time>
      </trkpt>
      <trkpt lat="45.20278" lon="5.23395">
        <ele>532</ele>
        <time>2018-03-08T20:49:57Z</time>
      </trkpt>
      <trkpt lat="45.20253" lon="5.23466">
        <ele>538</ele>
        <time>2018-03-08T20:50:57Z</time>
      </trkpt>
      <trkpt lat="45.20245" lon="5.23481">
        <ele>539</ele>
        <time>2018-03-08T20:51:57Z</time>
      </trkpt>
      <trkpt lat="45.20221" lon="5.23492">
        <ele>540</ele>
        <time>2018-03-08T20:52:57Z</time>
      </trkpt>
      <trkpt lat="45.20196" lon="5.23495">
        <ele>541</ele>
        <time>2018-03-08T20:53:57Z</time>
      </trkpt>
      <trkpt lat="45.20196" lon="5.23523">
        <ele>542</ele>
        <time>2018-03-08T20:54:57Z</time>
      </trkpt>
      <trkpt lat="45.202" lon="5.23579">
        <ele>541</ele>
        <time>2018-03-08T20:55:57Z</time>
      </trkpt>
      <trkpt lat="45.20197" lon="5.23833">
        <ele>560</ele>
        <time>2018-03-08T20:56:57Z</time>
      </trkpt>
      <trkpt lat="45.20192" lon="5.23882">
        <ele>565</ele>
        <time>2018-03-08T20:57:57Z</time>
      </trkpt>
      <trkpt lat="45.20189" lon="5.2391">
        <ele>568</ele>
        <time>2018-03-08T20:58:57Z</time>
      </trkpt>
      <trkpt lat="45.20184" lon="5.23968">
        <ele>574</ele>
        <time>2018-03-08T20:59:57Z</time>
      </trkpt>
      <trkpt lat="45.20181" lon="5.24041">
        <ele>579</ele>
        <time>2018-03-08T21:00:57Z</time>
      </trkpt>
      <trkpt lat="45.20187" lon="5.2411">
        <ele>584</ele>
        <time>2018-03-08T21:01:57Z</time>
      </trkpt>
      <trkpt lat="45.20193" lon="5.24163">
        <ele>588</ele>
        <time>2018-03-08T21:02:57Z</time>
      </trkpt>
      <trkpt lat="45.20186" lon="5.24215">
        <ele>591</ele>
        <time>2018-03-08T21:03:57Z</time>
      </trkpt>
      <trkpt lat="45.20181" lon="5.24272">
        <ele>595</ele>
        <time>2018-03-08T21:04:57Z</time>
      </trkpt>
      <trkpt lat="45.20175" lon="5.24301">
        <ele>597</ele>
        <time>2018-03-08T21:05:57Z</time>
      </trkpt>
      <trkpt lat="45.2016" lon="5.24315">
        <ele>596</ele>
        <time>2018-03-08T21:06:57Z</time>
      </trkpt>
      <trkpt lat="45.20152" lon="5.24323">
        <ele>594</ele>
        <time>2018-03-08T21:07:57Z</time>
      </trkpt>
      <trkpt lat="45.20187" lon="5.24364">
        <ele>602</ele>
        <time>2018-03-08T21:08:57Z</time>
      </trkpt>
      <trkpt lat="45.20233" lon="5.24371">
        <ele>604</ele>
        <time>2018-03-08T21:09:57Z</time>
      </trkpt>
      <trkpt lat="45.20279" lon="5.24396">
        <ele>607</ele>
        <time>2018-03-08T21:10:57Z</time>
      </trkpt>
      <trkpt lat="45.20303" lon="5.24425">
        <ele>611</ele>
        <time>2018-03-08T21:11:57Z</time>
      </trkpt>
      <trkpt lat="45.20333" lon="5.24504">
        <ele>620</ele>
        <time>2018-03-08T21:12:57Z</time>
      </trkpt>
      <trkpt lat="45.20397" lon="5.24614">
        <ele>623</ele>
        <time>2018-03-08T21:13:57Z</time>
      </trkpt>
      <trkpt lat="45.20466" lon="5.24716">
        <ele>625</ele>
        <time>2018-03-08T21:14:57Z</time>
      </trkpt>
      <trkpt lat="45.20508" lon="5.2478">
        <ele>628</ele>
        <time>2018-03-08T21:15:57Z</time>
      </trkpt>
      <trkpt lat="45.20552" lon="5.24859">
        <ele>628</ele>
        <time>2018-03-08T21:16:57Z</time>
      </trkpt>
      <trkpt lat="45.20638" lon="5.24953">
        <ele>626</ele>
        <time>2018-03-08T21:17:57Z</time>
      </trkpt>
      <trkpt lat="45.20736" lon="5.25065">
        <ele>630</ele>
        <time>2018-03-08T21:18:57Z</time>
      </trkpt>
      <trkpt lat="45.20741" lon="5.25086">
        <ele>631</ele>
        <time>2018-03-08T21:19:57Z</time>
      </trkpt>
      <trkpt lat="45.20736" lon="5.25099">
        <ele>630</ele>
        <time>2018-03-08T21:20:57Z</time>
      </trkpt>
      <trkpt lat="45.20771" lon="5.251">
        <ele>633</ele>
        <time>2018-03-08T21:21:57Z</time>
      </trkpt>
      <trkpt lat="45.20867" lon="5.251">
        <ele>638</ele>
        <time>2018-03-08T21:22:57Z</time>
      </trkpt>
      <trkpt lat="45.2091" lon="5.25105">
        <ele>641</ele>
        <time>2018-03-08T21:23:57Z</time>
      </trkpt>
      <trkpt lat="45.20964" lon="5.25127">
        <ele>644</ele>
        <time>2018-03-08T21:24:57Z</time>
      </trkpt>
      <trkpt lat="45.21037" lon="5.25144">
        <ele>650</ele>
        <time>2018-03-08T21:25:57Z</time>
      </trkpt>
      <trkpt lat="45.21082" lon="5.25166">
        <ele>652</ele>
        <time>2018-03-08T21:26:57Z</time>
      </trkpt>
      <trkpt lat="45.21119" lon="5.2519">
        <ele>650</ele>
        <time>2018-03-08T21:27:57Z</time>
      </trkpt>
      <trkpt lat="45.21201" lon="5.25325">
        <ele>648</ele>
        <time>2018-03-08T21:28:57Z</time>
      </trkpt>
      <trkpt lat="45.21269" lon="5.2548">
        <ele>647</ele>
        <time>2018-03-08T21:29:57Z</time>
      </trkpt>
      <trkpt lat="45.21314" lon="5.25574">
        <ele>649</ele>
        <time>2018-03-08T21:30:57Z</time>
      </trkpt>
      <trkpt lat="45.21318" lon="5.25613">
        <ele>649</ele>
        <time>2018-03-08T21:31:57Z</time>
      </trkpt>
      <trkpt lat="45.21335" lon="5.25663">
        <ele>650</ele>
        <time>2018-03-08T21:32:57Z</time>
      </trkpt>
      <trkpt lat="45.2134" lon="5.2573">
        <ele>651</ele>
        <time>2018-03-08T21:33:57Z</time>
      </trkpt>
      <trkpt lat="45.21368" lon="5.25819">
        <ele>649</ele>
        <time>2018-03-08T21:34:57Z</time>
      </trkpt>
      <trkpt lat="45.21384" lon="5.25854">
        <ele>647</ele>
        <time>2018-03-08T21:35:57Z</time>
      </trkpt>
      <trkpt lat="45.21401" lon="5.25916">
        <ele>645</ele>
        <time>2018-03-08T21:36:57Z</time>
      </trkpt>
      <trkpt lat="45.21418" lon="5.25977">
        <ele>644</ele>
        <time>2018-03-08T21:37:57Z</time>
      </trkpt>
      <trkpt lat="45.21443" lon="5.2606">
        <ele>644</ele>
        <time>2018-03-08T21:38:57Z</time>
      </trkpt>
      <trkpt lat="45.21465" lon="5.26134">
        <ele>646</ele>
        <time>2018-03-08T21:39:57Z</time>
      </trkpt>
      <trkpt lat="45.21498" lon="5.26264">
        <ele>646</ele>
        <time>2018-03-08T21:40:57Z</time>
      </trkpt>
      <trkpt lat="45.21507" lon="5.26359">
        <ele>641</ele>
        <time>2018-03-08T21:41:57Z</time>
      </trkpt>
      <trkpt lat="45.21502" lon="5.26466">
        <ele>638</ele>
        <time>2018-03-08T21:42:57Z</time>
      </trkpt>
      <trkpt lat="45.21516" lon="5.26532">
        <ele>637</ele>
        <time>2018-03-08T21:43:57Z</time>
      </trkpt>
      <trkpt lat="45.21516" lon="5.26607">
        <ele>636</ele>
        <time>2018-03-08T21:44:57Z</time>
      </trkpt>
      <trkpt lat="45.21519" lon="5.26678">
        <ele>635</ele>
        <time>2018-03-08T21:45:57Z</time>
      </trkpt>
      <trkpt lat="45.21557" lon="5.26785">
        <ele>642</ele>
        <time>2018-03-08T21:46:57Z</time>
      </trkpt>
      <trkpt lat="45.21574" lon="5.26854">
        <ele>646</ele>
        <time>2018-03-08T21:47:57Z</time>
      </trkpt>
      <trkpt lat="45.2185" lon="5.26777">
        <ele>647</ele>
        <time>2018-03-08T21:48:57Z</time>
      </trkpt>
      <trkpt lat="45.21997" lon="5.27113">
        <ele>662</ele>
        <time>2018-03-08T21:49:57Z</time>
      </trkpt>
      <trkpt lat="45.22124" lon="5.27388">
        <ele>660</ele>
        <time>2018-03-08T21:50:57Z</time>
      </trkpt>
      <trkpt lat="45.22204" lon="5.27322">
        <ele>658</ele>
        <time>2018-03-08T21:51:57Z</time>
      </trkpt>
      <trkpt lat="45.22284" lon="5.27244">
        <ele>660</ele>
        <time>2018-03-08T21:52:57Z</time>
      </trkpt>
      <trkpt lat="45.22301" lon="5.2721">
        <ele>661</ele>
        <time>2018-03-08T21:53:57Z</time>
      </trkpt>
      <trkpt lat="45.22608" lon="5.27491">
        <ele>666</ele>
        <time>2018-03-08T21:54:57Z</time>
      </trkpt>
      <trkpt lat="45.23019" lon="5.27841">
        <ele>667</ele>
        <time>2018-03-08T21:55:57Z</time>
      </trkpt>
      <trkpt lat="45.23318" lon="5.288">
        <ele>648</ele>
        <time>2018-03-08T21:56:57Z</time>
      </trkpt>
      <trkpt lat="45.23289" lon="5.28912">
        <ele>649</ele>
        <time>2018-03-08T21:57:57Z</time>
      </trkpt>
      <trkpt lat="45.23238" lon="5.28946">
        <ele>651</ele>
        <time>2018-03-08T21:58:57Z</time>
      </trkpt>
      <trkpt lat="45.23168" lon="5.29">
        <ele>652</ele>
        <time>2018-03-08T21:59:57Z</time>
      </trkpt>
      <trkpt lat="45.231" lon="5.29081">
        <ele>651</ele>
        <time>2018-03-08T22:00:57Z</time>
      </trkpt>
      <trkpt lat="45.23031" lon="5.29154">
        <ele>652</ele>
        <time>2018-03-08T22:01:57Z</time>
      </trkpt>
      <trkpt lat="45.22978" lon="5.29184">
        <ele>653</ele>
        <time>2018-03-08T22:02:57Z</time>
      </trkpt>
      <trkpt lat="45.22821" lon="5.29214">
        <ele>654</ele>
        <time>2018-03-08T22:03:57Z</time>
      </trkpt>
      <trkpt lat="45.22817" lon="5.29176">
        <ele>654</ele>
        <time>2018-03-08T22:04:57Z</time>
      </trkpt>
      <trkpt lat="45.22842" lon="5.29057">
        <ele>658</ele>
        <time>2018-03-08T22:05:57Z</time>
      </trkpt>
      <trkpt lat="45.22842" lon="5.29003">
        <ele>657</ele>
        <time>2018-03-08T22:06:57Z</time>
      </trkpt>
      <trkpt lat="45.22853" lon="5.28961">
        <ele>659</ele>
        <time>2018-03-08T22:07:57Z</time>
      </trkpt>
      <trkpt lat="45.22849" lon="5.28902">
        <ele>661</ele>
        <time>2018-03-08T22:08:57Z</time>
      </trkpt>
      <trkpt lat="45.22837" lon="5.28862">
        <ele>663</ele>
        <time>2018-03-08T22:09:57Z</time>
      </trkpt>
      <trkpt lat="45.22805" lon="5.28802">
        <ele>661</ele>
        <time>2018-03-08T22:10:57Z</time>
      </trkpt>
      <trkpt lat="45.22795" lon="5.28786">
        <ele>660</ele>
        <time>2018-03-08T22:11:57Z</time>
      </trkpt>
      <trkpt lat="45.22794" lon="5.28752">
        <ele>660</ele>
        <time>2018-03-08T22:12:57Z</time>
      </trkpt>
      <trkpt lat="45.22804" lon="5.28675">
        <ele>661</ele>
        <time>2018-03-08T22:13:57Z</time>
      </trkpt>
      <trkpt lat="45.22802" lon="5.28648">
        <ele>661</ele>
        <time>2018-03-08T22:14:57Z</time>
      </trkpt>
      <trkpt lat="45.22786" lon="5.28591">
        <ele>661</ele>
        <time>2018-03-08T22:15:57Z</time>
      </trkpt>
      <trkpt lat="45.22787" lon="5.28559">
        <ele>660</ele>
        <time>2018-03-08T22:16:57Z</time>
      </trkpt>
      <trkpt lat="45.22801" lon="5.28503">
        <ele>661</ele>
        <time>2018-03-08T22:17:57Z</time>
      </trkpt>
      <trkpt lat="45.22801" lon="5.28425">
        <ele>657</ele>
        <time>2018-03-08T22:18:57Z</time>
      </trkpt>
      <trkpt lat="45.22807" lon="5.28381">
        <ele>658</ele>
        <time>2018-03-08T22:19:57Z</time>
      </trkpt>
      <trkpt lat="45.22785" lon="5.28317">
        <ele>656</ele>
        <time>2018-03-08T22:20:57Z</time>
      </trkpt>
      <trkpt lat="45.22748" lon="5.28266">
        <ele>654</ele>
        <time>2018-03-08T22:21:57Z</time>
      </trkpt>
      <trkpt lat="45.22735" lon="5.28226">
        <ele>653</ele>
        <time>2018-03-08T22:22:57Z</time>
      </trkpt>
      <trkpt lat="45.22672" lon="5.28088">
        <ele>653</ele>
        <time>2018-03-08T22:23:57Z</time>
      </trkpt>
      <trkpt lat="45.2265" lon="5.28071">
        <ele>653</ele>
        <time>2018-03-08T22:24:57Z</time>
      </trkpt>
      <trkpt lat="45.22505" lon="5.28046">
        <ele>653</ele>
        <time>2018-03-08T22:25:57Z</time>
      </trkpt>
      <trkpt lat="45.22446" lon="5.28027">
        <ele>656</ele>
        <time>2018-03-08T22:26:57Z</time>
      </trkpt>
      <trkpt lat="45.22353" lon="5.27971">
        <ele>658</ele>
        <time>2018-03-08T22:27:57Z</time>
      </trkpt>
      <trkpt lat="45.22311" lon="5.27957">
        <ele>658</ele>
        <time>2018-03-08T22:28:57Z</time>
      </trkpt>
      <trkpt lat="45.22267" lon="5.27951">
        <ele>658</ele>
        <time>2018-03-08T22:29:57Z</time>
      </trkpt>
      <trkpt lat="45.2223" lon="5.27955">
        <ele>657</ele>
        <time>2018-03-08T22:30:57Z</time>
      </trkpt>
      <trkpt lat="45.22213" lon="5.27973">
        <ele>656</ele>
        <time>2018-03-08T22:31:57Z</time>
      </trkpt>
      <trkpt lat="45.22098" lon="5.28123">
        <ele>645</ele>
        <time>2018-03-08T22:32:57Z</time>
      </trkpt>
      <trkpt lat="45.22073" lon="5.28182">
        <ele>640</ele>
        <time>2018-03-08T22:33:57Z</time>
      </trkpt>
      <trkpt lat="45.22046" lon="5.28274">
        <ele>632</ele>
        <time>2018-03-08T22:34:57Z</time>
      </trkpt>
      <trkpt lat="45.2202" lon="5.28315">
        <ele>629</ele>
        <time>2018-03-08T22:35:57Z</time>
      </trkpt>
      <trkpt lat="45.22007" lon="5.2832">
        <ele>629</ele>
        <time>2018-03-08T22:36:57Z</time>
      </trkpt>
      <trkpt lat="45.21987" lon="5.28285">
        <ele>628</ele>
        <time>2018-03-08T22:37:57Z</time>
      </trkpt>
      <trkpt lat="45.21976" lon="5.28252">
        <ele>627</ele>
        <time>2018-03-08T22:38:57Z</time>
      </trkpt>
      <trkpt lat="45.21971" lon="5.28215">
        <ele>626</ele>
        <time>2018-03-08T22:39:57Z</time>
      </trkpt>
      <trkpt lat="45.21969" lon="5.28039">
        <ele>626</ele>
        <time>2018-03-08T22:40:57Z</time>
      </trkpt>
      <trkpt lat="45.21959" lon="5.28007">
        <ele>624</ele>
        <time>2018-03-08T22:41:57Z</time>
      </trkpt>
      <trkpt lat="45.21917" lon="5.27945">
        <ele>625</ele>
        <time>2018-03-08T22:42:57Z</time>
      </trkpt>
      <trkpt lat="45.2181" lon="5.27936">
        <ele>629</ele>
        <time>2018-03-08T22:43:57Z</time>
      </trkpt>
      <trkpt lat="45.2175" lon="5.27906">
        <ele>633</ele>
        <time>2018-03-08T22:44:57Z</time>
      </trkpt>
      <trkpt lat="45.21723" lon="5.2788">
        <ele>636</ele>
        <time>2018-03-08T22:45:57Z</time>
      </trkpt>
      <trkpt lat="45.21695" lon="5.27844">
        <ele>640</ele>
        <time>2018-03-08T22:46:57Z</time>
      </trkpt>
      <trkpt lat="45.21654" lon="5.27828">
        <ele>639</ele>
        <time>2018-03-08T22:47:57Z</time>
      </trkpt>
      <trkpt lat="45.21642" lon="5.27805">
        <ele>637</ele>
        <time>2018-03-08T22:48:57Z</time>
      </trkpt>
      <trkpt lat="45.21596" lon="5.27868">
        <ele>631</ele>
        <time>2018-03-08T22:49:57Z</time>
      </trkpt>
      <trkpt lat="45.2146" lon="5.27951">
        <ele>624</ele>
        <time>2018-03-08T22:50:57Z</time>
      </trkpt>
      <trkpt lat="45.21367" lon="5.27983">
        <ele>619</ele>
        <time>2018-03-08T22:51:57Z</time>
      </trkpt>
      <trkpt lat="45.213" lon="5.28001">
        <ele>619</ele>
        <time>2018-03-08T22:52:57Z</time>
      </trkpt>
      <trkpt lat="45.21271" lon="5.27994">
        <ele>617</ele>
        <time>2018-03-08T22:53:57Z</time>
      </trkpt>
      <trkpt lat="45.21235" lon="5.28026">
        <ele>618</ele>
        <time>2018-03-08T22:54:57Z</time>
      </trkpt>
      <trkpt lat="45.21172" lon="5.28056">
        <ele>620</ele>
        <time>2018-03-08T22:55:57Z</time>
      </trkpt>
      <trkpt lat="45.21076" lon="5.28129">
        <ele>618</ele>
        <time>2018-03-08T22:56:57Z</time>
      </trkpt>
      <trkpt lat="45.21017" lon="5.28168">
        <ele>619</ele>
        <time>2018-03-08T22:57:57Z</time>
      </trkpt>
      <trkpt lat="45.20933" lon="5.28241">
        <ele>620</ele>
        <time>2018-03-08T22:58:57Z</time>
      </trkpt>
      <trkpt lat="45.20828" lon="5.28273">
        <ele>617</ele>
        <time>2018-03-08T22:59:57Z</time>
      </trkpt>
      <trkpt lat="45.20685" lon="5.2831">
        <ele>611</ele>
        <time>2018-03-08T23:00:57Z</time>
      </trkpt>
      <trkpt lat="45.20593" lon="5.28323">
        <ele>603</ele>
        <time>2018-03-08T23:01:57Z</time>
      </trkpt>
      <trkpt lat="45.20529" lon="5.2831">
        <ele>590</ele>
        <time>2018-03-08T23:02:57Z</time>
      </trkpt>
      <trkpt lat="45.2047" lon="5.28295">
        <ele>576</ele>
        <time>2018-03-08T23:03:57Z</time>
      </trkpt>
      <trkpt lat="45.20431" lon="5.28305">
        <ele>569</ele>
        <time>2018-03-08T23:04:57Z</time>
      </trkpt>
      <trkpt lat="45.20384" lon="5.28285">
        <ele>560</ele>
        <time>2018-03-08T23:05:57Z</time>
      </trkpt>
      <trkpt lat="45.20391" lon="5.28271">
        <ele>560</ele>
        <time>2018-03-08T23:06:57Z</time>
      </trkpt>
      <trkpt lat="45.20504" lon="5.28238">
        <ele>571</ele>
        <time>2018-03-08T23:07:57Z</time>
      </trkpt>
      <trkpt lat="45.20528" lon="5.28221">
        <ele>569</ele>
        <time>2018-03-08T23:08:57Z</time>
      </trkpt>
      <trkpt lat="45.20429" lon="5.28237">
        <ele>561</ele>
        <time>2018-03-08T23:09:57Z</time>
      </trkpt>
      <trkpt lat="45.20367" lon="5.28252">
        <ele>556</ele>
        <time>2018-03-08T23:10:57Z</time>
      </trkpt>
      <trkpt lat="45.20339" lon="5.28267">
        <ele>553</ele>
        <time>2018-03-08T23:11:57Z</time>
      </trkpt>
      <trkpt lat="45.20328" lon="5.28286">
        <ele>552</ele>
        <time>2018-03-08T23:12:57Z</time>
      </trkpt>
      <trkpt lat="45.20254" lon="5.28318">
        <ele>542</ele>
        <time>2018-03-08T23:13:57Z</time>
      </trkpt>
      <trkpt lat="45.20207" lon="5.28365">
        <ele>540</ele>
        <time>2018-03-08T23:14:57Z</time>
      </trkpt>
      <trkpt lat="45.20175" lon="5.28393">
        <ele>538</ele>
        <time>2018-03-08T23:15:57Z</time>
      </trkpt>
      <trkpt lat="45.20133" lon="5.28389">
        <ele>536</ele>
        <time>2018-03-08T23:16:57Z</time>
      </trkpt>
      <trkpt lat="45.20056" lon="5.2837">
        <ele>531</ele>
        <time>2018-03-08T23:17:57Z</time>
      </trkpt>
      <trkpt lat="45.19964" lon="5.28359">
        <ele>523</ele>
        <time>2018-03-08T23:18:57Z</time>
      </trkpt>
      <trkpt lat="45.19871" lon="5.28361">
        <ele>515</ele>
        <time>2018-03-08T23:19:57Z</time>
      </trkpt>
      <trkpt lat="45.19779" lon="5.2835">
        <ele>510</ele>
        <time>2018-03-08T23:20:57Z</time>
      </trkpt>
      <trkpt lat="45.19714" lon="5.28333">
        <ele>512</ele>
        <time>2018-03-08T23:21:57Z</time>
      </trkpt>
      <trkpt lat="45.19664" lon="5.28344">
        <ele>513</ele>
        <time>2018-03-08T23:22:57Z</time>
      </trkpt>
      <trkpt lat="45.19592" lon="5.28385">
        <ele>515</ele>
        <time>2018-03-08T23:23:57Z</time>
      </trkpt>
      <trkpt lat="45.19506" lon="5.28395">
        <ele>516</ele>
        <time>2018-03-08T23:24:57Z</time>
      </trkpt>
      <trkpt lat="45.19401" lon="5.28462">
        <ele>508</ele>
        <time>2018-03-08T23:25:57Z</time>
      </trkpt>
      <trkpt lat="45.19312" lon="5.28498">
        <ele>507</ele>
        <time>2018-03-08T23:26:57Z</time>
      </trkpt>
      <trkpt lat="45.19267" lon="5.28541">
        <ele>499</ele>
        <time>2018-03-08T23:27:57Z</time>
      </trkpt>
      <trkpt lat="45.19244" lon="5.28582">
        <ele>496</ele>
        <time>2018-03-08T23:28:57Z</time>
      </trkpt>
      <trkpt lat="45.19247" lon="5.28619">
        <ele>491</ele>
        <time>2018-03-08T23:29:57Z</time>
      </trkpt>
      <trkpt lat="45.19227" lon="5.28586">
        <ele>491</ele>
        <time>2018-03-08T23:30:57Z</time>
      </trkpt>
      <trkpt lat="45.19229" lon="5.2855">
        <ele>492</ele>
        <time>2018-03-08T23:31:57Z</time>
      </trkpt>
      <trkpt lat="45.192" lon="5.2864">
        <ele>479</ele>
        <time>2018-03-08T23:32:57Z</time>
      </trkpt>
      <trkpt lat="45.19168" lon="5.28601">
        <ele>477</ele>
        <time>2018-03-08T23:33:57Z</time>
      </trkpt>
      <trkpt lat="45.19144" lon="5.28524">
        <ele>469</ele>
        <time>2018-03-08T23:34:57Z</time>
      </trkpt>
      <trkpt lat="45.1914" lon="5.28423">
        <ele>461</ele>
        <time>2018-03-08T23:35:57Z</time>
      </trkpt>
      <trkpt lat="45.19137" lon="5.28292">
        <ele>449</ele>
        <time>2018-03-08T23:36:57Z</time>
      </trkpt>
      <trkpt lat="45.19182" lon="5.28129">
        <ele>438</ele>
        <time>2018-03-08T23:37:57Z</time>
      </trkpt>
      <trkpt lat="45.19222" lon="5.28016">
        <ele>435</ele>
        <time>2018-03-08T23:38:57Z</time>
      </trkpt>
      <trkpt lat="45.19235" lon="5.27888">
        <ele>431</ele>
        <time>2018-03-08T23:39:57Z</time>
      </trkpt>
      <trkpt lat="45.19261" lon="5.27825">
        <ele>428</ele>
        <time>2018-03-08T23:40:57Z</time>
      </trkpt>
      <trkpt lat="45.19265" lon="5.27747">
        <ele>422</ele>
        <time>2018-03-08T23:41:57Z</time>
      </trkpt>
      <trkpt lat="45.19218" lon="5.27621">
        <ele>413</ele>
        <time>2018-03-08T23:42:57Z</time>
      </trkpt>
      <trkpt lat="45.19168" lon="5.27516">
        <ele>405</ele>
        <time>2018-03-08T23:43:57Z</time>
      </trkpt>
      <trkpt lat="45.19151" lon="5.27425">
        <ele>401</ele>
        <time>2018-03-08T23:44:57Z</time>
      </trkpt>
      <trkpt lat="45.19155" lon="5.27389">
        <ele>401</ele>
        <time>2018-03-08T23:45:57Z</time>
      </trkpt>
      <trkpt lat="45.19129" lon="5.27298">
        <ele>403</ele>
        <time>2018-03-08T23:46:57Z</time>
      </trkpt>
      <trkpt lat="45.19114" lon="5.27268">
        <ele>405</ele>
        <time>2018-03-08T23:47:57Z</time>
      </trkpt>
      <trkpt lat="45.19099" lon="5.27261">
        <ele>405</ele>
        <time>2018-03-08T23:48:57Z</time>
      </trkpt>
      <trkpt lat="45.19083" lon="5.27279">
        <ele>404</ele>
        <time>2018-03-08T23:49:57Z</time>
      </trkpt>
      <trkpt lat="45.19025" lon="5.27276">
        <ele>403</ele>
        <time>2018-03-08T23:50:57Z</time>
      </trkpt>
      <trkpt lat="45.18963" lon="5.27259">
        <ele>403</ele>
        <time>2018-03-08T23:51:57Z</time>
      </trkpt>
      <trkpt lat="45.1887" lon="5.27181">
        <ele>411</ele>
        <time>2018-03-08T23:52:57Z</time>
      </trkpt>
      <trkpt lat="45.18784" lon="5.27155">
        <ele>424</ele>
        <time>2018-03-08T23:53:57Z</time>
      </trkpt>
      <trkpt lat="45.18727" lon="5.27097">
        <ele>422</ele>
        <time>2018-03-08T23:54:57Z</time>
      </trkpt>
      <trkpt lat="45.18654" lon="5.27026">
        <ele>419</ele>
        <time>2018-03-08T23:55:57Z</time>
      </trkpt>
      <trkpt lat="45.18509" lon="5.26934">
        <ele>418</ele>
        <time>2018-03-08T23:56:57Z</time>
      </trkpt>
      <trkpt lat="45.18583" lon="5.26816">
        <ele>419</ele>
        <time>2018-03-08T23:57:57Z</time>
      </trkpt>
      <trkpt lat="45.18609" lon="5.26743">
        <ele>419</ele>
        <time>2018-03-08T23:58:57Z</time>
      </trkpt>
      <trkpt lat="45.18605" lon="5.26605">
        <ele>419</ele>
        <time>2018-03-08T23:59:57Z</time>
      </trkpt>
      <trkpt lat="45.18657" lon="5.26552">
        <ele>423</ele>
        <time>2018-03-09T00:00:57Z</time>
      </trkpt>
      <trkpt lat="45.18666" lon="5.26507">
        <ele>425</ele>
        <time>2018-03-09T00:01:57Z</time>
      </trkpt>
      <trkpt lat="45.18654" lon="5.26417">
        <ele>430</ele>
        <time>2018-03-09T00:02:57Z</time>
      </trkpt>
      <trkpt lat="45.18644" lon="5.26303">
        <ele>436</ele>
        <time>2018-03-09T00:03:57Z</time>
      </trkpt>
      <trkpt lat="45.18671" lon="5.26198">
        <ele>439</ele>
        <time>2018-03-09T00:04:57Z</time>
      </trkpt>
      <trkpt lat="45.18616" lon="5.26185">
        <ele>437</ele>
        <time>2018-03-09T00:05:57Z</time>
      </trkpt>
      <trkpt lat="45.18572" lon="5.26147">
        <ele>436</ele>
        <time>2018-03-09T00:06:57Z</time>
      </trkpt>
      <trkpt lat="45.18498" lon="5.26134">
        <ele>435</ele>
        <time>2018-03-09T00:07:57Z</time>
      </trkpt>
      <trkpt lat="45.18433" lon="5.26121">
        <ele>437</ele>
        <time>2018-03-09T00:08:57Z</time>
      </trkpt>
      <trkpt lat="45.18388" lon="5.26091">
        <ele>441</ele>
        <time>2018-03-09T00:09:57Z</time>
      </trkpt>
      <trkpt lat="45.1832" lon="5.26059">
        <ele>441</ele>
        <time>2018-03-09T00:10:57Z</time>
      </trkpt>
      <trkpt lat="45.18281" lon="5.26039">
        <ele>441</ele>
        <time>2018-03-09T00:11:57Z</time>
      </trkpt>
      <trkpt lat="45.1822" lon="5.26046">
        <ele>440</ele>
        <time>2018-03-09T00:12:57Z</time>
      </trkpt>
      <trkpt lat="45.18158" lon="5.26031">
        <ele>439</ele>
        <time>2018-03-09T00:13:57Z</time>
      </trkpt>
      <trkpt lat="45.18166" lon="5.25949">
        <ele>433</ele>
        <time>2018-03-09T00:14:57Z</time>
      </trkpt>
      <trkpt lat="45.18087" lon="5.25889">
        <ele>418</ele>
        <time>2018-03-09T00:15:57Z</time>
      </trkpt>
      <trkpt lat="45.18034" lon="5.25874">
        <ele>410</ele>
        <time>2018-03-09T00:16:57Z</time>
      </trkpt>
      <trkpt lat="45.17975" lon="5.25851">
        <ele>402</ele>
        <time>2018-03-09T00:17:57Z</time>
      </trkpt>
      <trkpt lat="45.17909" lon="5.25814">
        <ele>394</ele>
        <time>2018-03-09T00:18:57Z</time>
      </trkpt>
      <trkpt lat="45.17884" lon="5.25791">
        <ele>388</ele>
        <time>2018-03-09T00:19:57Z</time>
      </trkpt>
      <trkpt lat="45.17828" lon="5.25773">
        <ele>384</ele>
        <time>2018-03-09T00:20:57Z</time>
      </trkpt>
      <trkpt lat="45.17785" lon="5.25872">
        <ele>382</ele>
        <time>2018-03-09T00:21:57Z</time>
      </trkpt>
      <trkpt lat="45.17765" lon="5.25956">
        <ele>377</ele>
        <time>2018-03-09T00:22:57Z</time>
      </trkpt>
      <trkpt lat="45.17774" lon="5.26054">
        <ele>375</ele>
        <time>2018-03-09T00:23:57Z</time>
      </trkpt>
      <trkpt lat="45.1776" lon="5.26108">
        <ele>375</ele>
        <time>2018-03-09T00:24:57Z</time>
      </trkpt>
      <trkpt lat="45.17736" lon="5.26139">
        <ele>376</ele>
        <time>2018-03-09T00:25:57Z</time>
      </trkpt>
      <trkpt lat="45.17709" lon="5.26135">
        <ele>373</ele>
        <time>2018-03-09T00:26:57Z</time>
      </trkpt>
      <trkpt lat="45.17556" lon="5.26255">
        <ele>365</ele>
        <time>2018-03-09T00:27:57Z</time>
      </trkpt>
      <trkpt lat="45.17504" lon="5.26272">
        <ele>363</ele>
        <time>2018-03-09T00:28:57Z</time>
      </trkpt>
      <trkpt lat="45.17486" lon="5.26274">
        <ele>366</ele>
        <time>2018-03-09T00:29:57Z</time>
      </trkpt>
      <trkpt lat="45.17455" lon="5.26326">
        <ele>369</ele>
        <time>2018-03-09T00:30:57Z</time>
      </trkpt>
      <trkpt lat="45.17459" lon="5.26394">
        <ele>365</ele>
        <time>2018-03-09T00:31:57Z</time>
      </trkpt>
      <trkpt lat="45.17435" lon="5.26495">
        <ele>363</ele>
        <time>2018-03-09T00:32:57Z</time>
      </trkpt>
      <trkpt lat="45.17379" lon="5.26517">
        <ele>362</ele>
        <time>2018-03-09T00:33:57Z</time>
      </trkpt>
      <trkpt lat="45.17313" lon="5.26603">
        <ele>358</ele>
        <time>2018-03-09T00:34:57Z</time>
      </trkpt>
      <trkpt lat="45.173" lon="5.26594">
        <ele>358</ele>
        <time>2018-03-09T00:35:57Z</time>
      </trkpt>
      <trkpt lat="45.17269" lon="5.26598">
        <ele>359</ele>
        <time>2018-03-09T00:36:57Z</time>
      </trkpt>
      <trkpt lat="45.17256" lon="5.26595">
        <ele>360</ele>
        <time>2018-03-09T00:37:57Z</time>
      </trkpt>
      <trkpt lat="45.1721" lon="5.26653">
        <ele>360</ele>
        <time>2018-03-09T00:38:57Z</time>
      </trkpt>
      <trkpt lat="45.17151" lon="5.26733">
        <ele>358</ele>
        <time>2018-03-09T00:39:57Z</time>
      </trkpt>
      <trkpt lat="45.17087" lon="5.2681">
        <ele>364</ele>
        <time>2018-03-09T00:40:57Z</time>
      </trkpt>
      <trkpt lat="45.17012" lon="5.269">
        <ele>364</ele>
        <time>2018-03-09T00:41:57Z</time>
      </trkpt>
      <trkpt lat="45.16916" lon="5.26981">
        <ele>352</ele>
        <time>2018-03-09T00:42:57Z</time>
      </trkpt>
      <trkpt lat="45.16927" lon="5.27">
        <ele>347</ele>
        <time>2018-03-09T00:43:57Z</time>
      </trkpt>
      <trkpt lat="45.16904" lon="5.27016">
        <ele>349</ele>
        <time>2018-03-09T00:44:57Z</time>
      </trkpt>
      <trkpt lat="45.16871" lon="5.27034">
        <ele>353</ele>
        <time>2018-03-09T00:45:57Z</time>
      </trkpt>
      <trkpt lat="45.1684" lon="5.27068">
        <ele>352</ele>
        <time>2018-03-09T00:46:57Z</time>
      </trkpt>
      <trkpt lat="45.1681" lon="5.27091">
        <ele>355</ele>
        <time>2018-03-09T00:47:57Z</time>
      </trkpt>
      <trkpt lat="45.1674" lon="5.2717">
        <ele>351</ele>
        <time>2018-03-09T00:48:57Z</time>
      </trkpt>
      <trkpt lat="45.1668" lon="5.27299">
        <ele>349</ele>
        <time>2018-03-09T00:49:57Z</time>
      </trkpt>
      <trkpt lat="45.1662" lon="5.27404">
        <ele>342</ele>
        <time>2018-03-09T00:50:57Z</time>
      </trkpt>
      <trkpt lat="45.16552" lon="5.2749">
        <ele>342</ele>
        <time>2018-03-09T00:51:57Z</time>
      </trkpt>
      <trkpt lat="45.16461" lon="5.27584">
        <ele>342</ele>
        <time>2018-03-09T00:52:57Z</time>
      </trkpt>
      <trkpt lat="45.16352" lon="5.27747">
        <ele>335</ele>
        <time>2018-03-09T00:53:57Z</time>
      </trkpt>
      <trkpt lat="45.16294" lon="5.27827">
        <ele>333</ele>
        <time>2018-03-09T00:54:57Z</time>
      </trkpt>
      <trkpt lat="45.1626" lon="5.27911">
        <ele>333</ele>
        <time>2018-03-09T00:55:57Z</time>
      </trkpt>
      <trkpt lat="45.16207" lon="5.28011">
        <ele>335</ele>
        <time>2018-03-09T00:56:57Z</time>
      </trkpt>
      <trkpt lat="45.16158" lon="5.28102">
        <ele>331</ele>
        <time>2018-03-09T00:57:57Z</time>
      </trkpt>
      <trkpt lat="45.16104" lon="5.28174">
        <ele>326</ele>
        <time>2018-03-09T00:58:57Z</time>
      </trkpt>
      <trkpt lat="45.16027" lon="5.28172">
        <ele>328</ele>
        <time>2018-03-09T00:59:57Z</time>
      </trkpt>
      <trkpt lat="45.15979" lon="5.28159">
        <ele>327</ele>
        <time>2018-03-09T01:00:57Z</time>
      </trkpt>
      <trkpt lat="45.15934" lon="5.28129">
        <ele>330</ele>
        <time>2018-03-09T01:01:57Z</time>
      </trkpt>
      <trkpt lat="45.15981" lon="5.28129">
        <ele>336</ele>
        <time>2018-03-09T01:02:57Z</time>
      </trkpt>
      <trkpt lat="45.16042" lon="5.28116">
        <ele>342</ele>
        <time>2018-03-09T01:03:57Z</time>
      </trkpt>
      <trkpt lat="45.16075" lon="5.28086">
        <ele>349</ele>
        <time>2018-03-09T01:04:57Z</time>
      </trkpt>
      <trkpt lat="45.16075" lon="5.2802">
        <ele>359</ele>
        <time>2018-03-09T01:05:57Z</time>
      </trkpt>
      <trkpt lat="45.16101" lon="5.27992">
        <ele>360</ele>
        <time>2018-03-09T01:06:57Z</time>
      </trkpt>
      <trkpt lat="45.16137" lon="5.27953">
        <ele>360</ele>
        <time>2018-03-09T01:07:57Z</time>
      </trkpt>
      <trkpt lat="45.16166" lon="5.27896">
        <ele>362</ele>
        <time>2018-03-09T01:08:57Z</time>
      </trkpt>
      <trkpt lat="45.16152" lon="5.27814">
        <ele>368</ele>
        <time>2018-03-09T01:09:57Z</time>
      </trkpt>
      <trkpt lat="45.16128" lon="5.27767">
        <ele>368</ele>
        <time>2018-03-09T01:10:57Z</time>
      </trkpt>
      <trkpt lat="45.16102" lon="5.27741">
        <ele>370</ele>
        <time>2018-03-09T01:11:57Z</time>
      </trkpt>
      <trkpt lat="45.1606" lon="5.2772">
        <ele>376</ele>
        <time>2018-03-09T01:12:57Z</time>
      </trkpt>
      <trkpt lat="45.16015" lon="5.27698">
        <ele>383</ele>
        <time>2018-03-09T01:13:57Z</time>
      </trkpt>
      <trkpt lat="45.15978" lon="5.27668">
        <ele>382</ele>
        <time>2018-03-09T01:14:57Z</time>
      </trkpt>
      <trkpt lat="45.15943" lon="5.27647">
        <ele>383</ele>
        <time>2018-03-09T01:15:57Z</time>
      </trkpt>
      <trkpt lat="45.15937" lon="5.27608">
        <ele>386</ele>
        <time>2018-03-09T01:16:57Z</time>
      </trkpt>
      <trkpt lat="45.15937" lon="5.27574">
        <ele>389</ele>
        <time>2018-03-09T01:17:57Z</time>
      </trkpt>
      <trkpt lat="45.15937" lon="5.27533">
        <ele>391</ele>
        <time>2018-03-09T01:18:57Z</time>
      </trkpt>
      <trkpt lat="45.15918" lon="5.27499">
        <ele>395</ele>
        <time>2018-03-09T01:19:57Z</time>
      </trkpt>
      <trkpt lat="45.15883" lon="5.27473">
        <ele>399</ele>
        <time>2018-03-09T01:20:57Z</time>
      </trkpt>
      <trkpt lat="45.15853" lon="5.27469">
        <ele>401</ele>
        <time>2018-03-09T01:21:57Z</time>
      </trkpt>
      <trkpt lat="45.15805" lon="5.2746">
        <ele>402</ele>
        <time>2018-03-09T01:22:57Z</time>
      </trkpt>
      <trkpt lat="45.15807" lon="5.27378">
        <ele>412</ele>
        <time>2018-03-09T01:23:57Z</time>
      </trkpt>
      <trkpt lat="45.15807" lon="5.27305">
        <ele>417</ele>
        <time>2018-03-09T01:24:57Z</time>
      </trkpt>
      <trkpt lat="45.15837" lon="5.27286">
        <ele>419</ele>
        <time>2018-03-09T01:25:57Z</time>
      </trkpt>
      <trkpt lat="45.1587" lon="5.27278">
        <ele>419</ele>
        <time>2018-03-09T01:26:57Z</time>
      </trkpt>
      <trkpt lat="45.15928" lon="5.27252">
        <ele>420</ele>
        <time>2018-03-09T01:27:57Z</time>
      </trkpt>
      <trkpt lat="45.15958" lon="5.27244">
        <ele>420</ele>
        <time>2018-03-09T01:28:57Z</time>
      </trkpt>
      <trkpt lat="45.16018" lon="5.27227">
        <ele>419</ele>
        <time>2018-03-09T01:29:57Z</time>
      </trkpt>
      <trkpt lat="45.16068" lon="5.27228">
        <ele>420</ele>
        <time>2018-03-09T01:30:57Z</time>
      </trkpt>
      <trkpt lat="45.16102" lon="5.27238">
        <ele>421</ele>
        <time>2018-03-09T01:31:57Z</time>
      </trkpt>
      <trkpt lat="45.16161" lon="5.27236">
        <ele>419</ele>
        <time>2018-03-09T01:32:57Z</time>
      </trkpt>
      <trkpt lat="45.16185" lon="5.27238">
        <ele>419</ele>
        <time>2018-03-09T01:33:57Z</time>
      </trkpt>
      <trkpt lat="45.16227" lon="5.2723">
        <ele>417</ele>
        <time>2018-03-09T01:34:57Z</time>
      </trkpt>
      <trkpt lat="45.16256" lon="5.27208">
        <ele>415</ele>
        <time>2018-03-09T01:35:57Z</time>
      </trkpt>
      <trkpt lat="45.16307" lon="5.27155">
        <ele>413</ele>
        <time>2018-03-09T01:36:57Z</time>
      </trkpt>
      <trkpt lat="45.16341" lon="5.27112">
        <ele>408</ele>
        <time>2018-03-09T01:37:57Z</time>
      </trkpt>
      <trkpt lat="45.1637" lon="5.27059">
        <ele>408</ele>
        <time>2018-03-09T01:38:57Z</time>
      </trkpt>
      <trkpt lat="45.16394" lon="5.26996">
        <ele>409</ele>
        <time>2018-03-09T01:39:57Z</time>
      </trkpt>
      <trkpt lat="45.16384" lon="5.26939">
        <ele>410</ele>
        <time>2018-03-09T01:40:57Z</time>
      </trkpt>
      <trkpt lat="45.16449" lon="5.26793">
        <ele>418</ele>
        <time>2018-03-09T01:41:57Z</time>
      </trkpt>
      <trkpt lat="45.16476" lon="5.26745">
        <ele>420</ele>
        <time>2018-03-09T01:42:57Z</time>
      </trkpt>
      <trkpt lat="45.16506" lon="5.26698">
        <ele>422</ele>
        <time>2018-03-09T01:43:57Z</time>
      </trkpt>
      <trkpt lat="45.16547" lon="5.26655">
        <ele>423</ele>
        <time>2018-03-09T01:44:57Z</time>
      </trkpt>
      <trkpt lat="45.16585" lon="5.2663">
        <ele>424</ele>
        <time>2018-03-09T01:45:57Z</time>
      </trkpt>
      <trkpt lat="45.16639" lon="5.26617">
        <ele>426</ele>
        <time>2018-03-09T01:46:57Z</time>
      </trkpt>
      <trkpt lat="45.16682" lon="5.26584">
        <ele>431</ele>
        <time>2018-03-09T01:47:57Z</time>
      </trkpt>
      <trkpt lat="45.16707" lon="5.26542">
        <ele>433</ele>
        <time>2018-03-09T01:48:57Z</time>
      </trkpt>
      <trkpt lat="45.16714" lon="5.265">
        <ele>436</ele>
        <time>2018-03-09T01:49:57Z</time>
      </trkpt>
      <trkpt lat="45.16709" lon="5.26466">
        <ele>437</ele>
        <time>2018-03-09T01:50:57Z</time>
      </trkpt>
      <trkpt lat="45.16742" lon="5.2643">
        <ele>436</ele>
        <time>2018-03-09T01:51:57Z</time>
      </trkpt>
      <trkpt lat="45.16824" lon="5.2637">
        <ele>432</ele>
        <time>2018-03-09T01:52:57Z</time>
      </trkpt>
      <trkpt lat="45.16894" lon="5.26313">
        <ele>430</ele>
        <time>2018-03-09T01:53:57Z</time>
      </trkpt>
      <trkpt lat="45.16915" lon="5.26284">
        <ele>428</ele>
        <time>2018-03-09T01:54:57Z</time>
      </trkpt>
      <trkpt lat="45.16969" lon="5.26235">
        <ele>431</ele>
        <time>2018-03-09T01:55:57Z</time>
      </trkpt>
      <trkpt lat="45.16995" lon="5.26164">
        <ele>433</ele>
        <time>2018-03-09T01:56:57Z</time>
      </trkpt>
      <trkpt lat="45.17028" lon="5.26117">
        <ele>437</ele>
        <time>2018-03-09T01:57:57Z</time>
      </trkpt>
      <trkpt lat="45.17072" lon="5.26065">
        <ele>441</ele>
        <time>2018-03-09T01:58:57Z</time>
      </trkpt>
      <trkpt lat="45.17087" lon="5.25984">
        <ele>445</ele>
        <time>2018-03-09T01:59:57Z</time>
      </trkpt>
      <trkpt lat="45.17037" lon="5.25964">
        <ele>443</ele>
        <time>2018-03-09T02:00:57Z</time>
      </trkpt>
      <trkpt lat="45.1698" lon="5.25956">
        <ele>443</ele>
        <time>2018-03-09T02:01:57Z</time>
      </trkpt>
      <trkpt lat="45.16915" lon="5.25941">
        <ele>444</ele>
        <time>2018-03-09T02:02:57Z</time>
      </trkpt>
      <trkpt lat="45.16872" lon="5.2596">
        <ele>442</ele>
        <time>2018-03-09T02:03:57Z</time>
      </trkpt>
      <trkpt lat="45.16835" lon="5.25954">
        <ele>440</ele>
        <time>2018-03-09T02:04:57Z</time>
      </trkpt>
      <trkpt lat="45.1678" lon="5.25917">
        <ele>426</ele>
        <time>2018-03-09T02:05:57Z</time>
      </trkpt>
      <trkpt lat="45.16759" lon="5.25868">
        <ele>420</ele>
        <time>2018-03-09T02:06:57Z</time>
      </trkpt>
      <trkpt lat="45.16762" lon="5.25814">
        <ele>416</ele>
        <time>2018-03-09T02:07:57Z</time>
      </trkpt>
      <trkpt lat="45.16797" lon="5.25793">
        <ele>414</ele>
        <time>2018-03-09T02:08:57Z</time>
      </trkpt>
      <trkpt lat="45.16838" lon="5.25786">
        <ele>414</ele>
        <time>2018-03-09T02:09:57Z</time>
      </trkpt>
      <trkpt lat="45.16895" lon="5.25794">
        <ele>417</ele>
        <time>2018-03-09T02:10:57Z</time>
      </trkpt>
      <trkpt lat="45.16975" lon="5.25756">
        <ele>411</ele>
        <time>2018-03-09T02:11:57Z</time>
      </trkpt>
      <trkpt lat="45.16996" lon="5.25728">
        <ele>412</ele>
        <time>2018-03-09T02:12:57Z</time>
      </trkpt>
      <trkpt lat="45.16984" lon="5.25703">
        <ele>412</ele>
        <time>2018-03-09T02:13:57Z</time>
      </trkpt>
      <trkpt lat="45.16939" lon="5.25685">
        <ele>410</ele>
        <time>2018-03-09T02:14:57Z</time>
      </trkpt>
      <trkpt lat="45.16891" lon="5.25681">
        <ele>404</ele>
        <time>2018-03-09T02:15:57Z</time>
      </trkpt>
      <trkpt lat="45.16842" lon="5.25642">
        <ele>396</ele>
        <time>2018-03-09T02:16:57Z</time>
      </trkpt>
      <trkpt lat="45.16833" lon="5.25612">
        <ele>395</ele>
        <time>2018-03-09T02:17:57Z</time>
      </trkpt>
      <trkpt lat="45.16842" lon="5.2559">
        <ele>398</ele>
        <time>2018-03-09T02:18:57Z</time>
      </trkpt>
      <trkpt lat="45.16868" lon="5.25585">
        <ele>405</ele>
        <time>2018-03-09T02:19:57Z</time>
      </trkpt>
      <trkpt lat="45.16872" lon="5.25548">
        <ele>410</ele>
        <time>2018-03-09T02:20:57Z</time>
      </trkpt>
      <trkpt lat="45.16869" lon="5.25521">
        <ele>412</ele>
        <time>2018-03-09T02:21:57Z</time>
      </trkpt>
      <trkpt lat="45.16853" lon="5.25501">
        <ele>409</ele>
        <time>2018-03-09T02:22:57Z</time>
      </trkpt>
      <trkpt lat="45.16807" lon="5.25479">
        <ele>401</ele>
        <time>2018-03-09T02:23:57Z</time>
      </trkpt>
      <trkpt lat="45.16787" lon="5.25469">
        <ele>398</ele>
        <time>2018-03-09T02:24:57Z</time>
      </trkpt>
      <trkpt lat="45.16785" lon="5.25374">
        <ele>398</ele>
        <time>2018-03-09T02:25:57Z</time>
      </trkpt>
      <trkpt lat="45.16773" lon="5.25286">
        <ele>387</ele>
        <time>2018-03-09T02:26:57Z</time>
      </trkpt>
      <trkpt lat="45.16782" lon="5.25168">
        <ele>378</ele>
        <time>2018-03-09T02:27:57Z</time>
      </trkpt>
      <trkpt lat="45.1683" lon="5.25061">
        <ele>381</ele>
        <time>2018-03-09T02:28:57Z</time>
      </trkpt>
      <trkpt lat="45.16794" lon="5.25033">
        <ele>378</ele>
        <time>2018-03-09T02:29:57Z</time>
      </trkpt>
      <trkpt lat="45.16753" lon="5.25029">
        <ele>374</ele>
        <time>2018-03-09T02:30:57Z</time>
      </trkpt>
      <trkpt lat="45.16718" lon="5.25027">
        <ele>372</ele>
        <time>2018-03-09T02:31:57Z</time>
      </trkpt>
      <trkpt lat="45.1669" lon="5.24999">
        <ele>372</ele>
        <time>2018-03-09T02:32:57Z</time>
      </trkpt>
      <trkpt lat="45.1668" lon="5.24968">
        <ele>372</ele>
        <time>2018-03-09T02:33:57Z</time>
      </trkpt>
      <trkpt lat="45.1668" lon="5.24915">
        <ele>372</ele>
        <time>2018-03-09T02:34:57Z</time>
      </trkpt>
      <trkpt lat="45.16644" lon="5.24919">
        <ele>370</ele>
        <time>2018-03-09T02:35:57Z</time>
      </trkpt>
      <trkpt lat="45.16615" lon="5.24917">
        <ele>370</ele>
        <time>2018-03-09T02:36:57Z</time>
      </trkpt>
      <trkpt lat="45.16573" lon="5.24921">
        <ele>369</ele>
        <time>2018-03-09T02:37:57Z</time>
      </trkpt>
      <trkpt lat="45.16555" lon="5.24937">
        <ele>367</ele>
        <time>2018-03-09T02:38:57Z</time>
      </trkpt>
      <trkpt lat="45.16521" lon="5.24934">
        <ele>366</ele>
        <time>2018-03-09T02:39:57Z</time>
      </trkpt>
      <trkpt lat="45.16449" lon="5.24906">
        <ele>363</ele>
        <time>2018-03-09T02:40:57Z</time>
      </trkpt>
      <trkpt lat="45.1639" lon="5.24906">
        <ele>359</ele>
        <time>2018-03-09T02:41:57Z</time>
      </trkpt>
      <trkpt lat="45.16305" lon="5.24889">
        <ele>355</ele>
        <time>2018-03-09T02:42:57Z</time>
      </trkpt>
      <trkpt lat="45.16229" lon="5.24874">
        <ele>352</ele>
        <time>2018-03-09T02:43:57Z</time>
      </trkpt>
      <trkpt lat="45.16235" lon="5.24735">
        <ele>350</ele>
        <time>2018-03-09T02:44:57Z</time>
      </trkpt>
      <trkpt lat="45.1623" lon="5.24717">
        <ele>350</ele>
        <time>2018-03-09T02:45:57Z</time>
      </trkpt>
      <trkpt lat="45.16195" lon="5.24706">
        <ele>349</ele>
        <time>2018-03-09T02:46:57Z</time>
      </trkpt>
      <trkpt lat="45.16088" lon="5.24681">
        <ele>348</ele>
        <time>2018-03-09T02:47:57Z</time>
      </trkpt>
      <trkpt lat="45.16074" lon="5.24677">
        <ele>348</ele>
        <time>2018-03-09T02:48:57Z</time>
      </trkpt>
      <trkpt lat="45.16" lon="5.24679">
        <ele>346</ele>
        <time>2018-03-09T02:49:57Z</time>
      </trkpt>
      <trkpt lat="45.15888" lon="5.24675">
        <ele>342</ele>
        <time>2018-03-09T02:50:57Z</time>
      </trkpt>
      <trkpt lat="45.15719" lon="5.24673">
        <ele>336</ele>
        <time>2018-03-09T02:51:57Z</time>
      </trkpt>
      <trkpt lat="45.15651" lon="5.24669">
        <ele>333</ele>
        <time>2018-03-09T02:52:57Z</time>
      </trkpt>
      <trkpt lat="45.1564" lon="5.24746">
        <ele>334</ele>
        <time>2018-03-09T02:53:57Z</time>
      </trkpt>
      <trkpt lat="45.15538" lon="5.2474">
        <ele>330</ele>
        <time>2018-03-09T02:54:57Z</time>
      </trkpt>
      <trkpt lat="45.15519" lon="5.24756">
        <ele>330</ele>
        <time>2018-03-09T02:55:57Z</time>
      </trkpt>
      <trkpt lat="45.15483" lon="5.24768">
        <ele>328</ele>
        <time>2018-03-09T02:56:57Z</time>
      </trkpt>
      <trkpt lat="45.15412" lon="5.24767">
        <ele>325</ele>
        <time>2018-03-09T02:57:57Z</time>
      </trkpt>
      <trkpt lat="45.15185" lon="5.24898">
        <ele>308</ele>
        <time>2018-03-09T02:58:57Z</time>
      </trkpt>
      <trkpt lat="45.15157" lon="5.24902">
        <ele>307</ele>
        <time>2018-03-09T02:59:57Z</time>
      </trkpt>
      <trkpt lat="45.15121" lon="5.24903">
        <ele>305</ele>
        <time>2018-03-09T03:00:57Z</time>
      </trkpt>
      <trkpt lat="45.1509" lon="5.24911">
        <ele>304</ele>
        <time>2018-03-09T03:01:57Z</time>
      </trkpt>
      <trkpt lat="45.15057" lon="5.24916">
        <ele>305</ele>
        <time>2018-03-09T03:02:57Z</time>
      </trkpt>
      <trkpt lat="45.1504" lon="5.24917">
        <ele>306</ele>
        <time>2018-03-09T03:03:57Z</time>
      </trkpt>
      <trkpt lat="45.1502" lon="5.24911">
        <ele>306</ele>
        <time>2018-03-09T03:04:57Z</time>
      </trkpt>
      <trkpt lat="45.14997" lon="5.24897">
        <ele>305</ele>
        <time>2018-03-09T03:05:57Z</time>
      </trkpt>
      <trkpt lat="45.14976" lon="5.24885">
        <ele>303</ele>
        <time>2018-03-09T03:06:57Z</time>
      </trkpt>
      <trkpt lat="45.14942" lon="5.24869">
        <ele>301</ele>
        <time>2018-03-09T03:07:57Z</time>
      </trkpt>
      <trkpt lat="45.14919" lon="5.24859">
        <ele>300</ele>
        <time>2018-03-09T03:08:57Z</time>
      </trkpt>
      <trkpt lat="45.14899" lon="5.2485">
        <ele>301</ele>
        <time>2018-03-09T03:09:57Z</time>
      </trkpt>
      <trkpt lat="45.14858" lon="5.24757">
        <ele>297</ele>
        <time>2018-03-09T03:10:57Z</time>
      </trkpt>
      <trkpt lat="45.14908" lon="5.24757">
        <ele>295</ele>
        <time>2018-03-09T03:11:57Z</time>
      </trkpt>
      <trkpt lat="45.14929" lon="5.24755">
        <ele>296</ele>
        <time>2018-03-09T03:12:57Z</time>
      </trkpt>
      <trkpt lat="45.1495" lon="5.24735">
        <ele>298</ele>
        <time>2018-03-09T03:13:57Z</time>
      </trkpt>
      <trkpt lat="45.14958" lon="5.24695">
        <ele>302</ele>
        <time>2018-03-09T03:14:57Z</time>
      </trkpt>
      <trkpt lat="45.14954" lon="5.24638">
        <ele>306</ele>
        <time>2018-03-09T03:15:57Z</time>
      </trkpt>
      <trkpt lat="45.14961" lon="5.2459">
        <ele>309</ele>
        <time>2018-03-09T03:16:57Z</time>
      </trkpt>
      <trkpt lat="45.14972" lon="5.24563">
        <ele>310</ele>
        <time>2018-03-09T03:17:57Z</time>
      </trkpt>
      <trkpt lat="45.15105" lon="5.24475">
        <ele>319</ele>
        <time>2018-03-09T03:18:57Z</time>
      </trkpt>
      <trkpt lat="45.15137" lon="5.24459">
        <ele>322</ele>
        <time>2018-03-09T03:19:57Z</time>
      </trkpt>
      <trkpt lat="45.1517" lon="5.24443">
        <ele>324</ele>
        <time>2018-03-09T03:20:57Z</time>
      </trkpt>
      <trkpt lat="45.152" lon="5.24419">
        <ele>328</ele>
        <time>2018-03-09T03:21:57Z</time>
      </trkpt>
      <trkpt lat="45.15228" lon="5.24383">
        <ele>333</ele>
        <time>2018-03-09T03:22:57Z</time>
      </trkpt>
      <trkpt lat="45.15268" lon="5.24322">
        <ele>338</ele>
        <time>2018-03-09T03:23:57Z</time>
      </trkpt>
      <trkpt lat="45.15343" lon="5.24246">
        <ele>337</ele>
        <time>2018-03-09T03:24:57Z</time>
      </trkpt>
      <trkpt lat="45.1537" lon="5.24212">
        <ele>338</ele>
        <time>2018-03-09T03:25:57Z</time>
      </trkpt>
      <trkpt lat="45.15392" lon="5.2419">
        <ele>339</ele>
        <time>2018-03-09T03:26:57Z</time>
      </trkpt>
      <trkpt lat="45.15428" lon="5.24172">
        <ele>340</ele>
        <time>2018-03-09T03:27:57Z</time>
      </trkpt>
      <trkpt lat="45.15468" lon="5.24146">
        <ele>342</ele>
        <time>2018-03-09T03:28:57Z</time>
      </trkpt>
      <trkpt lat="45.15518" lon="5.24104">
        <ele>346</ele>
        <time>2018-03-09T03:29:57Z</time>
      </trkpt>
      <trkpt lat="45.15562" lon="5.24051">
        <ele>353</ele>
        <time>2018-03-09T03:30:57Z</time>
      </trkpt>
      <trkpt lat="45.15601" lon="5.24002">
        <ele>359</ele>
        <time>2018-03-09T03:31:57Z</time>
      </trkpt>
      <trkpt lat="45.15643" lon="5.23924">
        <ele>356</ele>
        <time>2018-03-09T03:32:57Z</time>
      </trkpt>
      <trkpt lat="45.15695" lon="5.23857">
        <ele>346</ele>
        <time>2018-03-09T03:33:57Z</time>
      </trkpt>
      <trkpt lat="45.15737" lon="5.23845">
        <ele>342</ele>
        <time>2018-03-09T03:34:57Z</time>
      </trkpt>
      <trkpt lat="45.15782" lon="5.23824">
        <ele>340</ele>
        <time>2018-03-09T03:35:57Z</time>
      </trkpt>
      <trkpt lat="45.15687" lon="5.23574">
        <ele>330</ele>
        <time>2018-03-09T03:36:57Z</time>
      </trkpt>
      <trkpt lat="45.15708" lon="5.2355">
        <ele>330</ele>
        <time>2018-03-09T03:37:57Z</time>
      </trkpt>
      <trkpt lat="45.15728" lon="5.23516">
        <ele>331</ele>
        <time>2018-03-09T03:38:57Z</time>
      </trkpt>
      <trkpt lat="45.15721" lon="5.23476">
        <ele>330</ele>
        <time>2018-03-09T03:39:57Z</time>
      </trkpt>
      <trkpt lat="45.15712" lon="5.23441">
        <ele>329</ele>
        <time>2018-03-09T03:40:57Z</time>
      </trkpt>
      <trkpt lat="45.15714" lon="5.23401">
        <ele>328</ele>
        <time>2018-03-09T03:41:57Z</time>
      </trkpt>
      <trkpt lat="45.15741" lon="5.23335">
        <ele>329</ele>
        <time>2018-03-09T03:42:57Z</time>
      </trkpt>
      <trkpt lat="45.15775" lon="5.23251">
        <ele>332</ele>
        <time>2018-03-09T03:43:57Z</time>
      </trkpt>
      <trkpt lat="45.15837" lon="5.23124">
        <ele>333</ele>
        <time>2018-03-09T03:44:57Z</time>
      </trkpt>
      <trkpt lat="45.15859" lon="5.23091">
        <ele>332</ele>
        <time>2018-03-09T03:45:57Z</time>
      </trkpt>
      <trkpt lat="45.15891" lon="5.23043">
        <ele>330</ele>
        <time>2018-03-09T03:46:57Z</time>
      </trkpt>
      <trkpt lat="45.15934" lon="5.22961">
        <ele>328</ele>
        <time>2018-03-09T03:47:57Z</time>
      </trkpt>
      <trkpt lat="45.15964" lon="5.22885">
        <ele>326</ele>
        <time>2018-03-09T03:48:57Z</time>
      </trkpt>
      <trkpt lat="45.15986" lon="5.22762">
        <ele>326</ele>
        <time>2018-03-09T03:49:57Z</time>
      </trkpt>
      <trkpt lat="45.15998" lon="5.2269">
        <ele>330</ele>
        <time>2018-03-09T03:50:57Z</time>
      </trkpt>
      <trkpt lat="45.15992" lon="5.22556">
        <ele>338</ele>
        <time>2018-03-09T03:51:57Z</time>
      </trkpt>
      <trkpt lat="45.1601" lon="5.22498">
        <ele>339</ele>
        <time>2018-03-09T03:52:57Z</time>
      </trkpt>
      <trkpt lat="45.16003" lon="5.22485">
        <ele>337</ele>
        <time>2018-03-09T03:53:57Z</time>
      </trkpt>
      <trkpt lat="45.15993" lon="5.22473">
        <ele>335</ele>
        <time>2018-03-09T03:54:57Z</time>
      </trkpt>
      <trkpt lat="45.15992" lon="5.22456">
        <ele>331</ele>
        <time>2018-03-09T03:55:57Z</time>
      </trkpt>
      <trkpt lat="45.16006" lon="5.22446">
        <ele>329</ele>
        <time>2018-03-09T03:56:57Z</time>
      </trkpt>
      <trkpt lat="45.16022" lon="5.22443">
        <ele>328</ele>
        <time>2018-03-09T03:57:57Z</time>
      </trkpt>
      <trkpt lat="45.16041" lon="5.22438">
        <ele>327</ele>
        <time>2018-03-09T03:58:57Z</time>
      </trkpt>
      <trkpt lat="45.16051" lon="5.22425">
        <ele>325</ele>
        <time>2018-03-09T03:59:57Z</time>
      </trkpt>
      <trkpt lat="45.1604" lon="5.22425">
        <ele>325</ele>
        <time>2018-03-09T04:00:57Z</time>
      </trkpt>
      <trkpt lat="45.16026" lon="5.2243">
        <ele>326</ele>
        <time>2018-03-09T04:01:57Z</time>
      </trkpt>
      <trkpt lat="45.16002" lon="5.2243">
        <ele>326</ele>
        <time>2018-03-09T04:02:57Z</time>
      </trkpt>
      <trkpt lat="45.15985" lon="5.2243">
        <ele>326</ele>
        <time>2018-03-09T04:03:57Z</time>
      </trkpt>
      <trkpt lat="45.15969" lon="5.22427">
        <ele>326</ele>
        <time>2018-03-09T04:04:57Z</time>
      </trkpt>
      <trkpt lat="45.15949" lon="5.22422">
        <ele>325</ele>
        <time>2018-03-09T04:05:57Z</time>
      </trkpt>
      <trkpt lat="45.15934" lon="5.22411">
        <ele>324</ele>
        <time>2018-03-09T04:06:57Z</time>
      </trkpt>
      <trkpt lat="45.15914" lon="5.22407">
        <ele>325</ele>
        <time>2018-03-09T04:07:57Z</time>
      </trkpt>
      <trkpt lat="45.15903" lon="5.22402">
        <ele>325</ele>
        <time>2018-03-09T04:08:57Z</time>
      </trkpt>
      <trkpt lat="45.15897" lon="5.22383">
        <ele>324</ele>
        <time>2018-03-09T04:09:57Z</time>
      </trkpt>
      <trkpt lat="45.159" lon="5.22371">
        <ele>323</ele>
        <time>2018-03-09T04:10:57Z</time>
      </trkpt>
      <trkpt lat="45.15895" lon="5.22359">
        <ele>322</ele>
        <time>2018-03-09T04:11:57Z</time>
      </trkpt>
      <trkpt lat="45.15882" lon="5.22352">
        <ele>322</ele>
        <time>2018-03-09T04:12:57Z</time>
      </trkpt>
      <trkpt lat="45.15834" lon="5.22342">
        <ele>320</ele>
        <time>2018-03-09T04:13:57Z</time>
      </trkpt>
      <trkpt lat="45.15776" lon="5.2233">
        <ele>318</ele>
        <time>2018-03-09T04:14:57Z</time>
      </trkpt>
      <trkpt lat="45.15767" lon="5.22329">
        <ele>318</ele>
        <time>2018-03-09T04:15:57Z</time>
      </trkpt>
      <trkpt lat="45.15761" lon="5.22325">
        <ele>318</ele>
        <time>2018-03-09T04:16:57Z</time>
      </trkpt>
      <trkpt lat="45.15758" lon="5.22313">
        <ele>319</ele>
        <time>2018-03-09T04:17:57Z</time>
      </trkpt>
      <trkpt lat="45.15756" lon="5.22302">
        <ele>320</ele>
        <time>2018-03-09T04:18:57Z</time>
      </trkpt>
      <trkpt lat="45.15749" lon="5.22299">
        <ele>320</ele>
        <time>2018-03-09T04:19:57Z</time>
      </trkpt>
      <trkpt lat="45.15742" lon="5.22297">
        <ele>322</ele>
        <time>2018-03-09T04:20:57Z</time>
      </trkpt>
      <trkpt lat="45.15737" lon="5.2229">
        <ele>323</ele>
        <time>2018-03-09T04:21:57Z</time>
      </trkpt>
      <trkpt lat="45.15739" lon="5.22271">
        <ele>325</ele>
        <time>2018-03-09T04:22:57Z</time>
      </trkpt>
      <trkpt lat="45.15743" lon="5.22251">
        <ele>326</ele>
        <time>2018-03-09T04:23:57Z</time>
      </trkpt>
      <trkpt lat="45.15748" lon="5.22232">
        <ele>326</ele>
        <time>2018-03-09T04:24:57Z</time>
      </trkpt>
      <trkpt lat="45.15755" lon="5.22203">
        <ele>328</ele>
        <time>2018-03-09T04:25:57Z</time>
      </trkpt>
      <trkpt lat="45.15749" lon="5.22165">
        <ele>330</ele>
        <time>2018-03-09T04:26:57Z</time>
      </trkpt>
      <trkpt lat="45.15746" lon="5.22145">
        <ele>332</ele>
        <time>2018-03-09T04:27:57Z</time>
      </trkpt>
      <trkpt lat="45.15743" lon="5.22121">
        <ele>334</ele>
        <time>2018-03-09T04:28:57Z</time>
      </trkpt>
      <trkpt lat="45.15736" lon="5.22104">
        <ele>336</ele>
        <time>2018-03-09T04:29:57Z</time>
      </trkpt>
      <trkpt lat="45.15722" lon="5.22079">
        <ele>340</ele>
        <time>2018-03-09T04:30:57Z</time>
      </trkpt>
      <trkpt lat="45.15704" lon="5.22054">
        <ele>346</ele>
        <time>2018-03-09T04:31:57Z</time>
      </trkpt>
      <trkpt lat="45.15683" lon="5.22026">
        <ele>349</ele>
        <time>2018-03-09T04:32:57Z</time>
      </trkpt>
      <trkpt lat="45.1567" lon="5.22021">
        <ele>349</ele>
        <time>2018-03-09T04:33:57Z</time>
      </trkpt>
      <trkpt lat="45.15648" lon="5.22019">
        <ele>351</ele>
        <time>2018-03-09T04:34:57Z</time>
      </trkpt>
      <trkpt lat="45.15632" lon="5.22008">
        <ele>353</ele>
        <time>2018-03-09T04:35:57Z</time>
      </trkpt>
      <trkpt lat="45.15615" lon="5.21999">
        <ele>354</ele>
        <time>2018-03-09T04:36:57Z</time>
      </trkpt>
      <trkpt lat="45.15601" lon="5.21985">
        <ele>356</ele>
        <time>2018-03-09T04:37:57Z</time>
      </trkpt>
      <trkpt lat="45.15583" lon="5.21972">
        <ele>357</ele>
        <time>2018-03-09T04:38:57Z</time>
      </trkpt>
      <trkpt lat="45.15564" lon="5.21974">
        <ele>360</ele>
        <time>2018-03-09T04:39:57Z</time>
      </trkpt>
      <trkpt lat="45.15539" lon="5.21993">
        <ele>364</ele>
        <time>2018-03-09T04:40:57Z</time>
      </trkpt>
      <trkpt lat="45.15509" lon="5.22012">
        <ele>368</ele>
        <time>2018-03-09T04:41:57Z</time>
      </trkpt>
      <trkpt lat="45.15474" lon="5.22037">
        <ele>371</ele>
        <time>2018-03-09T04:42:57Z</time>
      </trkpt>
      <trkpt lat="45.15453" lon="5.22044">
        <ele>373</ele>
        <time>2018-03-09T04:43:57Z</time>
      </trkpt>
      <trkpt lat="45.15419" lon="5.22057">
        <ele>376</ele>
        <time>2018-03-09T04:44:57Z</time>
      </trkpt>
      <trkpt lat="45.15381" lon="5.22076">
        <ele>376</ele>
        <time>2018-03-09T04:45:57Z</time>
      </trkpt>
      <trkpt lat="45.15415" lon="5.22163">
        <ele>379</ele>
        <time>2018-03-09T04:46:57Z</time>
      </trkpt>
      <trkpt lat="45.15395" lon="5.22174">
        <ele>379</ele>
        <time>2018-03-09T04:47:57Z</time>
      </trkpt>
      <trkpt lat="45.15368" lon="5.22186">
        <ele>380</ele>
        <time>2018-03-09T04:48:57Z</time>
      </trkpt>
      <trkpt lat="45.15343" lon="5.22209">
        <ele>382</ele>
        <time>2018-03-09T04:49:57Z</time>
      </trkpt>
      <trkpt lat="45.15328" lon="5.22238">
        <ele>385</ele>
        <time>2018-03-09T04:50:57Z</time>
      </trkpt>
      <trkpt lat="45.15318" lon="5.22268">
        <ele>388</ele>
        <time>2018-03-09T04:51:57Z</time>
      </trkpt>
      <trkpt lat="45.15309" lon="5.22303">
        <ele>392</ele>
        <time>2018-03-09T04:52:57Z</time>
      </trkpt>
      <trkpt lat="45.15299" lon="5.22342">
        <ele>397</ele>
        <time>2018-03-09T04:53:57Z</time>
      </trkpt>
      <trkpt lat="45.15289" lon="5.22366">
        <ele>398</ele>
        <time>2018-03-09T04:54:57Z</time>
      </trkpt>
      <trkpt lat="45.15284" lon="5.22402">
        <ele>401</ele>
        <time>2018-03-09T04:55:57Z</time>
      </trkpt>
      <trkpt lat="45.15263" lon="5.22432">
        <ele>402</ele>
        <time>2018-03-09T04:56:57Z</time>
      </trkpt>
      <trkpt lat="45.15256" lon="5.2244">
        <ele>402</ele>
        <time>2018-03-09T04:57:57Z</time>
      </trkpt>
      <trkpt lat="45.15247" lon="5.22475">
        <ele>403</ele>
        <time>2018-03-09T04:58:57Z</time>
      </trkpt>
      <trkpt lat="45.15231" lon="5.22488">
        <ele>404</ele>
        <time>2018-03-09T04:59:57Z</time>
      </trkpt>
      <trkpt lat="45.15204" lon="5.22559">
        <ele>400</ele>
        <time>2018-03-09T05:00:57Z</time>
      </trkpt>
      <trkpt lat="45.1518" lon="5.22618">
        <ele>395</ele>
        <time>2018-03-09T05:01:57Z</time>
      </trkpt>
      <trkpt lat="45.15165" lon="5.22648">
        <ele>391</ele>
        <time>2018-03-09T05:02:57Z</time>
      </trkpt>
      <trkpt lat="45.15151" lon="5.22666">
        <ele>389</ele>
        <time>2018-03-09T05:03:57Z</time>
      </trkpt>
      <trkpt lat="45.15138" lon="5.22679">
        <ele>388</ele>
        <time>2018-03-09T05:04:57Z</time>
      </trkpt>
      <trkpt lat="45.15122" lon="5.22685">
        <ele>388</ele>
        <time>2018-03-09T05:05:57Z</time>
      </trkpt>
      <trkpt lat="45.15099" lon="5.22693">
        <ele>389</ele>
        <time>2018-03-09T05:06:57Z</time>
      </trkpt>
      <trkpt lat="45.15082" lon="5.22694">
        <ele>390</ele>
        <time>2018-03-09T05:07:57Z</time>
      </trkpt>
      <trkpt lat="45.15063" lon="5.22696">
        <ele>388</ele>
        <time>2018-03-09T05:08:57Z</time>
      </trkpt>
      <trkpt lat="45.15054" lon="5.22709">
        <ele>386</ele>
        <time>2018-03-09T05:09:57Z</time>
      </trkpt>
      <trkpt lat="45.15039" lon="5.22724">
        <ele>384</ele>
        <time>2018-03-09T05:10:57Z</time>
      </trkpt>
      <trkpt lat="45.15028" lon="5.22731">
        <ele>382</ele>
        <time>2018-03-09T05:11:57Z</time>
      </trkpt>
      <trkpt lat="45.1501" lon="5.22734">
        <ele>381</ele>
        <time>2018-03-09T05:12:57Z</time>
      </trkpt>
      <trkpt lat="45.15" lon="5.22751">
        <ele>379</ele>
        <time>2018-03-09T05:13:57Z</time>
      </trkpt>
      <trkpt lat="45.14993" lon="5.22768">
        <ele>376</ele>
        <time>2018-03-09T05:14:57Z</time>
      </trkpt>
      <trkpt lat="45.14983" lon="5.22789">
        <ele>374</ele>
        <time>2018-03-09T05:15:57Z</time>
      </trkpt>
      <trkpt lat="45.14978" lon="5.22812">
        <ele>371</ele>
        <time>2018-03-09T05:16:57Z</time>
      </trkpt>
      <trkpt lat="45.1497" lon="5.22826">
        <ele>370</ele>
        <time>2018-03-09T05:17:57Z</time>
      </trkpt>
      <trkpt lat="45.14952" lon="5.22842">
        <ele>369</ele>
        <time>2018-03-09T05:18:57Z</time>
      </trkpt>
      <trkpt lat="45.14935" lon="5.22864">
        <ele>366</ele>
        <time>2018-03-09T05:19:57Z</time>
      </trkpt>
      <trkpt lat="45.14927" lon="5.22897">
        <ele>363</ele>
        <time>2018-03-09T05:20:57Z</time>
      </trkpt>
      <trkpt lat="45.14923" lon="5.22916">
        <ele>362</ele>
        <time>2018-03-09T05:21:57Z</time>
      </trkpt>
      <trkpt lat="45.14913" lon="5.22927">
        <ele>362</ele>
        <time>2018-03-09T05:22:57Z</time>
      </trkpt>
      <trkpt lat="45.14907" lon="5.22921">
        <ele>362</ele>
        <time>2018-03-09T05:23:57Z</time>
      </trkpt>
      <trkpt lat="45.14896" lon="5.22917">
        <ele>361</ele>
        <time>2018-03-09T05:24:57Z</time>
      </trkpt>
      <trkpt lat="45.14886" lon="5.22914">
        <ele>361</ele>
        <time>2018-03-09T05:25:57Z</time>
      </trkpt>
      <trkpt lat="45.14875" lon="5.22914">
        <ele>360</ele>
        <time>2018-03-09T05:26:57Z</time>
      </trkpt>
      <trkpt lat="45.14862" lon="5.22913">
        <ele>360</ele>
        <time>2018-03-09T05:27:57Z</time>
      </trkpt>
      <trkpt lat="45.14847" lon="5.22912">
        <ele>359</ele>
        <time>2018-03-09T05:28:57Z</time>
      </trkpt>
      <trkpt lat="45.14836" lon="5.22915">
        <ele>358</ele>
        <time>2018-03-09T05:29:57Z</time>
      </trkpt>
      <trkpt lat="45.14822" lon="5.22911">
        <ele>357</ele>
        <time>2018-03-09T05:30:57Z</time>
      </trkpt>
      <trkpt lat="45.14811" lon="5.22901">
        <ele>356</ele>
        <time>2018-03-09T05:31:57Z</time>
      </trkpt>
      <trkpt lat="45.148" lon="5.22896">
        <ele>355</ele>
        <time>2018-03-09T05:32:57Z</time>
      </trkpt>
      <trkpt lat="45.14783" lon="5.22888">
        <ele>352</ele>
        <time>2018-03-09T05:33:57Z</time>
      </trkpt>
      <trkpt lat="45.14768" lon="5.2288">
        <ele>349</ele>
        <time>2018-03-09T05:34:57Z</time>
      </trkpt>
      <trkpt lat="45.14748" lon="5.22865">
        <ele>345</ele>
        <time>2018-03-09T05:35:57Z</time>
      </trkpt>
      <trkpt lat="45.14735" lon="5.22851">
        <ele>342</ele>
        <time>2018-03-09T05:36:57Z</time>
      </trkpt>
      <trkpt lat="45.14723" lon="5.2282">
        <ele>338</ele>
        <time>2018-03-09T05:37:57Z</time>
      </trkpt>
      <trkpt lat="45.14717" lon="5.22806">
        <ele>337</ele>
        <time>2018-03-09T05:38:57Z</time>
      </trkpt>
      <trkpt lat="45.14709" lon="5.22798">
        <ele>336</ele>
        <time>2018-03-09T05:39:57Z</time>
      </trkpt>
      <trkpt lat="45.14703" lon="5.22781">
        <ele>335</ele>
        <time>2018-03-09T05:40:57Z</time>
      </trkpt>
      <trkpt lat="45.14697" lon="5.22769">
        <ele>334</ele>
        <time>2018-03-09T05:41:57Z</time>
      </trkpt>
      <trkpt lat="45.14689" lon="5.22756">
        <ele>333</ele>
        <time>2018-03-09T05:42:57Z</time>
      </trkpt>
      <trkpt lat="45.14678" lon="5.22747">
        <ele>332</ele>
        <time>2018-03-09T05:43:57Z</time>
      </trkpt>
      <trkpt lat="45.14664" lon="5.22741">
        <ele>331</ele>
        <time>2018-03-09T05:44:57Z</time>
      </trkpt>
      <trkpt lat="45.14653" lon="5.22739">
        <ele>330</ele>
        <time>2018-03-09T05:45:57Z</time>
      </trkpt>
      <trkpt lat="45.14642" lon="5.22741">
        <ele>329</ele>
        <time>2018-03-09T05:46:57Z</time>
      </trkpt>
      <trkpt lat="45.14626" lon="5.22746">
        <ele>328</ele>
        <time>2018-03-09T05:47:57Z</time>
      </trkpt>
      <trkpt lat="45.14607" lon="5.22757">
        <ele>327</ele>
        <time>2018-03-09T05:48:57Z</time>
      </trkpt>
      <trkpt lat="45.1459" lon="5.22767">
        <ele>326</ele>
        <time>2018-03-09T05:49:57Z</time>
      </trkpt>
      <trkpt lat="45.14578" lon="5.22774">
        <ele>326</ele>
        <time>2018-03-09T05:50:57Z</time>
      </trkpt>
      <trkpt lat="45.14561" lon="5.22779">
        <ele>325</ele>
        <time>2018-03-09T05:51:57Z</time>
      </trkpt>
      <trkpt lat="45.14524" lon="5.22793">
        <ele>323</ele>
        <time>2018-03-09T05:52:57Z</time>
      </trkpt>
      <trkpt lat="45.14455" lon="5.22807">
        <ele>320</ele>
        <time>2018-03-09T05:53:57Z</time>
      </trkpt>
      <trkpt lat="45.14468" lon="5.22782">
        <ele>320</ele>
        <time>2018-03-09T05:54:57Z</time>
      </trkpt>
      <trkpt lat="45.14482" lon="5.22741">
        <ele>320</ele>
        <time>2018-03-09T05:55:57Z</time>
      </trkpt>
      <trkpt lat="45.14494" lon="5.22704">
        <ele>317</ele>
        <time>2018-03-09T05:56:57Z</time>
      </trkpt>
      <trkpt lat="45.14526" lon="5.22668">
        <ele>316</ele>
        <time>2018-03-09T05:57:57Z</time>
      </trkpt>
      <trkpt lat="45.14557" lon="5.22634">
        <ele>317</ele>
        <time>2018-03-09T05:58:57Z</time>
      </trkpt>
      <trkpt lat="45.14619" lon="5.22554">
        <ele>322</ele>
        <time>2018-03-09T05:59:57Z</time>
      </trkpt>
      <trkpt lat="45.14572" lon="5.22503">
        <ele>322</ele>
        <time>2018-03-09T06:00:57Z</time>
      </trkpt>
      <trkpt lat="45.14541" lon="5.2247">
        <ele>321</ele>
        <time>2018-03-09T06:01:57Z</time>
      </trkpt>
      <trkpt lat="45.14515" lon="5.2244">
        <ele>318</ele>
        <time>2018-03-09T06:02:57Z</time>
      </trkpt>
      <trkpt lat="45.145" lon="5.22409">
        <ele>315</ele>
        <time>2018-03-09T06:03:57Z</time>
      </trkpt>
      <trkpt lat="45.14489" lon="5.2237">
        <ele>313</ele>
        <time>2018-03-09T06:04:57Z</time>
      </trkpt>
      <trkpt lat="45.14492" lon="5.22298">
        <ele>311</ele>
        <time>2018-03-09T06:05:57Z</time>
      </trkpt>
      <trkpt lat="45.14502" lon="5.22239">
        <ele>309</ele>
        <time>2018-03-09T06:06:57Z</time>
      </trkpt>
      <trkpt lat="45.14537" lon="5.22136">
        <ele>308</ele>
        <time>2018-03-09T06:07:57Z</time>
      </trkpt>
      <trkpt lat="45.14597" lon="5.21886">
        <ele>310</ele>
        <time>2018-03-09T06:08:57Z</time>
      </trkpt>
      <trkpt lat="45.14652" lon="5.21892">
        <ele>314</ele>
        <time>2018-03-09T06:09:57Z</time>
      </trkpt>
      <trkpt lat="45.14709" lon="5.21898">
        <ele>318</ele>
        <time>2018-03-09T06:10:57Z</time>
      </trkpt>
      <trkpt lat="45.14754" lon="5.21897">
        <ele>321</ele>
        <time>2018-03-09T06:11:57Z</time>
      </trkpt>
      <trkpt lat="45.14776" lon="5.21898">
        <ele>324</ele>
        <time>2018-03-09T06:12:57Z</time>
      </trkpt>
      <trkpt lat="45.14795" lon="5.21877">
        <ele>326</ele>
        <time>2018-03-09T06:13:57Z</time>
      </trkpt>
      <trkpt lat="45.14805" lon="5.21869">
        <ele>328</ele>
        <time>2018-03-09T06:14:57Z</time>
      </trkpt>
      <trkpt lat="45.14815" lon="5.21888">
        <ele>329</ele>
        <time>2018-03-09T06:15:57Z</time>
      </trkpt>
      <trkpt lat="45.14819" lon="5.21924">
        <ele>331</ele>
        <time>2018-03-09T06:16:57Z</time>
      </trkpt>
      <trkpt lat="45.14826" lon="5.21944">
        <ele>332</ele>
        <time>2018-03-09T06:17:57Z</time>
      </trkpt>
      <trkpt lat="45.14846" lon="5.21952">
        <ele>337</ele>
        <time>2018-03-09T06:18:57Z</time>
      </trkpt>
      <trkpt lat="45.14865" lon="5.21964">
        <ele>343</ele>
        <time>2018-03-09T06:19:57Z</time>
      </trkpt>
      <trkpt lat="45.14883" lon="5.21988">
        <ele>347</ele>
        <time>2018-03-09T06:20:57Z</time>
      </trkpt>
      <trkpt lat="45.14899" lon="5.22019">
        <ele>352</ele>
        <time>2018-03-09T06:21:57Z</time>
      </trkpt>
      <trkpt lat="45.14909" lon="5.22046">
        <ele>354</ele>
        <time>2018-03-09T06:22:57Z</time>
      </trkpt>
      <trkpt lat="45.14919" lon="5.22062">
        <ele>356</ele>
        <time>2018-03-09T06:23:57Z</time>
      </trkpt>
      <trkpt lat="45.14934" lon="5.22044">
        <ele>356</ele>
        <time>2018-03-09T06:24:57Z</time>
      </trkpt>
      <trkpt lat="45.14939" lon="5.21997">
        <ele>356</ele>
        <time>2018-03-09T06:25:57Z</time>
      </trkpt>
      <trkpt lat="45.14941" lon="5.2195">
        <ele>357</ele>
        <time>2018-03-09T06:26:57Z</time>
      </trkpt>
      <trkpt lat="45.14947" lon="5.21916">
        <ele>357</ele>
        <time>2018-03-09T06:27:57Z</time>
      </trkpt>
      <trkpt lat="45.14965" lon="5.2189">
        <ele>356</ele>
        <time>2018-03-09T06:28:57Z</time>
      </trkpt>
      <trkpt lat="45.14983" lon="5.21864">
        <ele>356</ele>
        <time>2018-03-09T06:29:57Z</time>
      </trkpt>
      <trkpt lat="45.14992" lon="5.21841">
        <ele>356</ele>
        <time>2018-03-09T06:30:57Z</time>
      </trkpt>
      <trkpt lat="45.15011" lon="5.21794">
        <ele>354</ele>
        <time>2018-03-09T06:31:57Z</time>
      </trkpt>
      <trkpt lat="45.15034" lon="5.21784">
        <ele>356</ele>
        <time>2018-03-09T06:32:57Z</time>
      </trkpt>
      <trkpt lat="45.15031" lon="5.21759">
        <ele>355</ele>
        <time>2018-03-09T06:33:57Z</time>
      </trkpt>
      <trkpt lat="45.15048" lon="5.21708">
        <ele>359</ele>
        <time>2018-03-09T06:34:57Z</time>
      </trkpt>
      <trkpt lat="45.15067" lon="5.21689">
        <ele>362</ele>
        <time>2018-03-09T06:35:57Z</time>
      </trkpt>
      <trkpt lat="45.1509" lon="5.21699">
        <ele>363</ele>
        <time>2018-03-09T06:36:57Z</time>
      </trkpt>
      <trkpt lat="45.15109" lon="5.21708">
        <ele>364</ele>
        <time>2018-03-09T06:37:57Z</time>
      </trkpt>
      <trkpt lat="45.15138" lon="5.21704">
        <ele>366</ele>
        <time>2018-03-09T06:38:57Z</time>
      </trkpt>
      <trkpt lat="45.15155" lon="5.21681">
        <ele>367</ele>
        <time>2018-03-09T06:39:57Z</time>
      </trkpt>
      <trkpt lat="45.15157" lon="5.21603">
        <ele>370</ele>
        <time>2018-03-09T06:40:57Z</time>
      </trkpt>
      <trkpt lat="45.15191" lon="5.21555">
        <ele>373</ele>
        <time>2018-03-09T06:41:57Z</time>
      </trkpt>
      <trkpt lat="45.15187" lon="5.21472">
        <ele>379</ele>
        <time>2018-03-09T06:42:57Z</time>
      </trkpt>
      <trkpt lat="45.15189" lon="5.21436">
        <ele>382</ele>
        <time>2018-03-09T06:43:57Z</time>
      </trkpt>
      <trkpt lat="45.15217" lon="5.21344">
        <ele>384</ele>
        <time>2018-03-09T06:44:57Z</time>
      </trkpt>
      <trkpt lat="45.15216" lon="5.21306">
        <ele>389</ele>
        <time>2018-03-09T06:45:57Z</time>
      </trkpt>
      <trkpt lat="45.15216" lon="5.21273">
        <ele>394</ele>
        <time>2018-03-09T06:46:57Z</time>
      </trkpt>
      <trkpt lat="45.15218" lon="5.21253">
        <ele>397</ele>
        <time>2018-03-09T06:47:57Z</time>
      </trkpt>
      <trkpt lat="45.15241" lon="5.21211">
        <ele>402</ele>
        <time>2018-03-09T06:48:57Z</time>
      </trkpt>
      <trkpt lat="45.1527" lon="5.21167">
        <ele>403</ele>
        <time>2018-03-09T06:49:57Z</time>
      </trkpt>
      <trkpt lat="45.15303" lon="5.2109">
        <ele>403</ele>
        <time>2018-03-09T06:50:57Z</time>
      </trkpt>
      <trkpt lat="45.15326" lon="5.21037">
        <ele>401</ele>
        <time>2018-03-09T06:51:57Z</time>
      </trkpt>
      <trkpt lat="45.1533" lon="5.20996">
        <ele>402</ele>
        <time>2018-03-09T06:52:57Z</time>
      </trkpt>
      <trkpt lat="45.15339" lon="5.2098">
        <ele>404</ele>
        <time>2018-03-09T06:53:57Z</time>
      </trkpt>
      <trkpt lat="45.1534" lon="5.20943">
        <ele>409</ele>
        <time>2018-03-09T06:54:57Z</time>
      </trkpt>
      <trkpt lat="45.15346" lon="5.20926">
        <ele>412</ele>
        <time>2018-03-09T06:55:57Z</time>
      </trkpt>
      <trkpt lat="45.15356" lon="5.20923">
        <ele>413</ele>
        <time>2018-03-09T06:56:57Z</time>
      </trkpt>
      <trkpt lat="45.15362" lon="5.2095">
        <ele>411</ele>
        <time>2018-03-09T06:57:57Z</time>
      </trkpt>
      <trkpt lat="45.15373" lon="5.20976">
        <ele>409</ele>
        <time>2018-03-09T06:58:57Z</time>
      </trkpt>
      <trkpt lat="45.15386" lon="5.21011">
        <ele>407</ele>
        <time>2018-03-09T06:59:57Z</time>
      </trkpt>
      <trkpt lat="45.15394" lon="5.21042">
        <ele>405</ele>
        <time>2018-03-09T07:00:57Z</time>
      </trkpt>
      <trkpt lat="45.15406" lon="5.2107">
        <ele>403</ele>
        <time>2018-03-09T07:01:57Z</time>
      </trkpt>
      <trkpt lat="45.15426" lon="5.21089">
        <ele>402</ele>
        <time>2018-03-09T07:02:57Z</time>
      </trkpt>
      <trkpt lat="45.15443" lon="5.21115">
        <ele>401</ele>
        <time>2018-03-09T07:03:57Z</time>
      </trkpt>
      <trkpt lat="45.15465" lon="5.21125">
        <ele>401</ele>
        <time>2018-03-09T07:04:57Z</time>
      </trkpt>
      <trkpt lat="45.1548" lon="5.21116">
        <ele>404</ele>
        <time>2018-03-09T07:05:57Z</time>
      </trkpt>
      <trkpt lat="45.155" lon="5.21107">
        <ele>408</ele>
        <time>2018-03-09T07:06:57Z</time>
      </trkpt>
      <trkpt lat="45.1553" lon="5.21102">
        <ele>409</ele>
        <time>2018-03-09T07:07:57Z</time>
      </trkpt>
      <trkpt lat="45.15557" lon="5.21102">
        <ele>408</ele>
        <time>2018-03-09T07:08:57Z</time>
      </trkpt>
      <trkpt lat="45.15572" lon="5.21099">
        <ele>408</ele>
        <time>2018-03-09T07:09:57Z</time>
      </trkpt>
      <trkpt lat="45.15585" lon="5.21085">
        <ele>410</ele>
        <time>2018-03-09T07:10:57Z</time>
      </trkpt>
      <trkpt lat="45.15592" lon="5.21063">
        <ele>410</ele>
        <time>2018-03-09T07:11:57Z</time>
      </trkpt>
      <trkpt lat="45.15585" lon="5.21048">
        <ele>412</ele>
        <time>2018-03-09T07:12:57Z</time>
      </trkpt>
      <trkpt lat="45.15573" lon="5.21029">
        <ele>415</ele>
        <time>2018-03-09T07:13:57Z</time>
      </trkpt>
      <trkpt lat="45.15536" lon="5.20999">
        <ele>423</ele>
        <time>2018-03-09T07:14:57Z</time>
      </trkpt>
      <trkpt lat="45.1556" lon="5.20929">
        <ele>425</ele>
        <time>2018-03-09T07:15:57Z</time>
      </trkpt>
      <trkpt lat="45.15567" lon="5.20909">
        <ele>426</ele>
        <time>2018-03-09T07:16:57Z</time>
      </trkpt>
      <trkpt lat="45.15568" lon="5.2088">
        <ele>429</ele>
        <time>2018-03-09T07:17:57Z</time>
      </trkpt>
      <trkpt lat="45.15564" lon="5.2086">
        <ele>431</ele>
        <time>2018-03-09T07:18:57Z</time>
      </trkpt>
      <trkpt lat="45.15566" lon="5.20839">
        <ele>433</ele>
        <time>2018-03-09T07:19:57Z</time>
      </trkpt>
      <trkpt lat="45.15593" lon="5.20764">
        <ele>442</ele>
        <time>2018-03-09T07:20:57Z</time>
      </trkpt>
      <trkpt lat="45.15613" lon="5.20724">
        <ele>447</ele>
        <time>2018-03-09T07:21:57Z</time>
      </trkpt>
      <trkpt lat="45.15628" lon="5.20698">
        <ele>451</ele>
        <time>2018-03-09T07:22:57Z</time>
      </trkpt>
      <trkpt lat="45.15636" lon="5.20672">
        <ele>456</ele>
        <time>2018-03-09T07:23:57Z</time>
      </trkpt>
      <trkpt lat="45.15657" lon="5.20666">
        <ele>456</ele>
        <time>2018-03-09T07:24:57Z</time>
      </trkpt>
      <trkpt lat="45.15688" lon="5.20666">
        <ele>454</ele>
        <time>2018-03-09T07:25:57Z</time>
      </trkpt>
      <trkpt lat="45.15738" lon="5.20668">
        <ele>451</ele>
        <time>2018-03-09T07:26:57Z</time>
      </trkpt>
      <trkpt lat="45.15756" lon="5.2062">
        <ele>451</ele>
        <time>2018-03-09T07:27:57Z</time>
      </trkpt>
      <trkpt lat="45.15775" lon="5.20573">
        <ele>450</ele>
        <time>2018-03-09T07:28:57Z</time>
      </trkpt>
      <trkpt lat="45.15786" lon="5.20539">
        <ele>449</ele>
        <time>2018-03-09T07:29:57Z</time>
      </trkpt>
      <trkpt lat="45.15797" lon="5.20485">
        <ele>449</ele>
        <time>2018-03-09T07:30:57Z</time>
      </trkpt>
      <trkpt lat="45.15804" lon="5.20457">
        <ele>450</ele>
        <time>2018-03-09T07:31:57Z</time>
      </trkpt>
      <trkpt lat="45.15805" lon="5.20433">
        <ele>451</ele>
        <time>2018-03-09T07:32:57Z</time>
      </trkpt>
      <trkpt lat="45.158" lon="5.20415">
        <ele>452</ele>
        <time>2018-03-09T07:33:57Z</time>
      </trkpt>
      <trkpt lat="45.15823" lon="5.20396">
        <ele>451</ele>
        <time>2018-03-09T07:34:57Z</time>
      </trkpt>
      <trkpt lat="45.15828" lon="5.204">
        <ele>451</ele>
        <time>2018-03-09T07:35:57Z</time>
      </trkpt>
      <trkpt lat="45.15841" lon="5.20401">
        <ele>451</ele>
        <time>2018-03-09T07:36:57Z</time>
      </trkpt>
      <trkpt lat="45.15858" lon="5.20391">
        <ele>450</ele>
        <time>2018-03-09T07:37:57Z</time>
      </trkpt>
      <trkpt lat="45.15876" lon="5.20372">
        <ele>450</ele>
        <time>2018-03-09T07:38:57Z</time>
      </trkpt>
      <trkpt lat="45.15904" lon="5.20347">
        <ele>452</ele>
        <time>2018-03-09T07:39:57Z</time>
      </trkpt>
      <trkpt lat="45.15933" lon="5.20322">
        <ele>455</ele>
        <time>2018-03-09T07:40:57Z</time>
      </trkpt>
      <trkpt lat="45.15946" lon="5.20312">
        <ele>456</ele>
        <time>2018-03-09T07:41:57Z</time>
      </trkpt>
      <trkpt lat="45.15962" lon="5.20311">
        <ele>457</ele>
        <time>2018-03-09T07:42:57Z</time>
      </trkpt>
      <trkpt lat="45.15979" lon="5.20318">
        <ele>457</ele>
        <time>2018-03-09T07:43:57Z</time>
      </trkpt>
      <trkpt lat="45.16001" lon="5.20326">
        <ele>457</ele>
        <time>2018-03-09T07:44:57Z</time>
      </trkpt>
      <trkpt lat="45.16015" lon="5.20328">
        <ele>458</ele>
        <time>2018-03-09T07:45:57Z</time>
      </trkpt>
      <trkpt lat="45.16035" lon="5.20322">
        <ele>460</ele>
        <time>2018-03-09T07:46:57Z</time>
      </trkpt>
      <trkpt lat="45.16051" lon="5.20315">
        <ele>461</ele>
        <time>2018-03-09T07:47:57Z</time>
      </trkpt>
      <trkpt lat="45.16065" lon="5.20279">
        <ele>464</ele>
        <time>2018-03-09T07:48:57Z</time>
      </trkpt>
      <trkpt lat="45.16141" lon="5.20262">
        <ele>468</ele>
        <time>2018-03-09T07:49:57Z</time>
      </trkpt>
      <trkpt lat="45.16222" lon="5.20247">
        <ele>472</ele>
        <time>2018-03-09T07:50:57Z</time>
      </trkpt>
      <trkpt lat="45.16306" lon="5.20197">
        <ele>478</ele>
        <time>2018-03-09T07:51:57Z</time>
      </trkpt>
      <trkpt lat="45.16378" lon="5.20147">
        <ele>487</ele>
        <time>2018-03-09T07:52:57Z</time>
      </trkpt>
      <trkpt lat="45.16422" lon="5.20109">
        <ele>495</ele>
        <time>2018-03-09T07:53:57Z</time>
      </trkpt>
      <trkpt lat="45.16444" lon="5.20089">
        <ele>499</ele>
        <time>2018-03-09T07:54:57Z</time>
      </trkpt>
      <trkpt lat="45.16466" lon="5.20069">
        <ele>501</ele>
        <time>2018-03-09T07:55:57Z</time>
      </trkpt>
      <trkpt lat="45.16484" lon="5.2004">
        <ele>505</ele>
        <time>2018-03-09T07:56:57Z</time>
      </trkpt>
      <trkpt lat="45.16498" lon="5.20008">
        <ele>509</ele>
        <time>2018-03-09T07:57:57Z</time>
      </trkpt>
      <trkpt lat="45.16518" lon="5.19982">
        <ele>512</ele>
        <time>2018-03-09T07:58:57Z</time>
      </trkpt>
      <trkpt lat="45.16532" lon="5.19963">
        <ele>515</ele>
        <time>2018-03-09T07:59:57Z</time>
      </trkpt>
      <trkpt lat="45.16543" lon="5.19935">
        <ele>518</ele>
        <time>2018-03-09T08:00:57Z</time>
      </trkpt>
      <trkpt lat="45.16559" lon="5.19901">
        <ele>523</ele>
        <time>2018-03-09T08:01:57Z</time>
      </trkpt>
      <trkpt lat="45.16577" lon="5.19877">
        <ele>526</ele>
        <time>2018-03-09T08:02:57Z</time>
      </trkpt>
      <trkpt lat="45.16592" lon="5.19856">
        <ele>528</ele>
        <time>2018-03-09T08:03:57Z</time>
      </trkpt>
      <trkpt lat="45.16606" lon="5.19839">
        <ele>529</ele>
        <time>2018-03-09T08:04:57Z</time>
      </trkpt>
      <trkpt lat="45.16623" lon="5.19825">
        <ele>529</ele>
        <time>2018-03-09T08:05:57Z</time>
      </trkpt>
      <trkpt lat="45.16642" lon="5.19809">
        <ele>529</ele>
        <time>2018-03-09T08:06:57Z</time>
      </trkpt>
      <trkpt lat="45.16661" lon="5.19794">
        <ele>530</ele>
        <time>2018-03-09T08:07:57Z</time>
      </trkpt>
      <trkpt lat="45.16675" lon="5.19782">
        <ele>531</ele>
        <time>2018-03-09T08:08:57Z</time>
      </trkpt>
      <trkpt lat="45.16689" lon="5.19767">
        <ele>534</ele>
        <time>2018-03-09T08:09:57Z</time>
      </trkpt>
      <trkpt lat="45.16702" lon="5.19753">
        <ele>537</ele>
        <time>2018-03-09T08:10:57Z</time>
      </trkpt>
      <trkpt lat="45.16716" lon="5.19738">
        <ele>539</ele>
        <time>2018-03-09T08:11:57Z</time>
      </trkpt>
      <trkpt lat="45.16743" lon="5.19726">
        <ele>540</ele>
        <time>2018-03-09T08:12:57Z</time>
      </trkpt>
      <trkpt lat="45.16768" lon="5.19712">
        <ele>543</ele>
        <time>2018-03-09T08:13:57Z</time>
      </trkpt>
      <trkpt lat="45.16787" lon="5.19706">
        <ele>545</ele>
        <time>2018-03-09T08:14:57Z</time>
      </trkpt>
      <trkpt lat="45.16822" lon="5.19688">
        <ele>551</ele>
        <time>2018-03-09T08:15:57Z</time>
      </trkpt>
      <trkpt lat="45.16872" lon="5.19658">
        <ele>559</ele>
        <time>2018-03-09T08:16:57Z</time>
      </trkpt>
      <trkpt lat="45.16904" lon="5.1965">
        <ele>562</ele>
        <time>2018-03-09T08:17:57Z</time>
      </trkpt>
      <trkpt lat="45.1694" lon="5.19641">
        <ele>561</ele>
        <time>2018-03-09T08:18:57Z</time>
      </trkpt>
      <trkpt lat="45.1698" lon="5.1963">
        <ele>560</ele>
        <time>2018-03-09T08:19:57Z</time>
      </trkpt>
      <trkpt lat="45.1701" lon="5.19621">
        <ele>559</ele>
        <time>2018-03-09T08:20:57Z</time>
      </trkpt>
      <trkpt lat="45.17043" lon="5.19621">
        <ele>557</ele>
        <time>2018-03-09T08:21:57Z</time>
      </trkpt>
      <trkpt lat="45.17112" lon="5.19616">
        <ele>554</ele>
        <time>2018-03-09T08:22:57Z</time>
      </trkpt>
      <trkpt lat="45.17167" lon="5.19614">
        <ele>552</ele>
        <time>2018-03-09T08:23:57Z</time>
      </trkpt>
      <trkpt lat="45.17246" lon="5.19615">
        <ele>549</ele>
        <time>2018-03-09T08:24:57Z</time>
      </trkpt>
      <trkpt lat="45.17279" lon="5.19628">
        <ele>549</ele>
        <time>2018-03-09T08:25:57Z</time>
      </trkpt>
      <trkpt lat="45.17324" lon="5.19644">
        <ele>548</ele>
        <time>2018-03-09T08:26:57Z</time>
      </trkpt>
      <trkpt lat="45.17354" lon="5.19657">
        <ele>548</ele>
        <time>2018-03-09T08:27:57Z</time>
      </trkpt>
      <trkpt lat="45.17421" lon="5.19691">
        <ele>544</ele>
        <time>2018-03-09T08:28:57Z</time>
      </trkpt>
      <trkpt lat="45.17491" lon="5.1973">
        <ele>545</ele>
        <time>2018-03-09T08:29:57Z</time>
      </trkpt>
      <trkpt lat="45.17584" lon="5.19738">
        <ele>552</ele>
        <time>2018-03-09T08:30:57Z</time>
      </trkpt>
      <trkpt lat="45.1766" lon="5.19744">
        <ele>551</ele>
        <time>2018-03-09T08:31:57Z</time>
      </trkpt>
      <trkpt lat="45.1771" lon="5.19748">
        <ele>553</ele>
        <time>2018-03-09T08:32:57Z</time>
      </trkpt>
      <trkpt lat="45.17732" lon="5.19754">
        <ele>554</ele>
        <time>2018-03-09T08:33:57Z</time>
      </trkpt>
      <trkpt lat="45.17785" lon="5.19757">
        <ele>557</ele>
        <time>2018-03-09T08:34:57Z</time>
      </trkpt>
      <trkpt lat="45.17837" lon="5.19754">
        <ele>561</ele>
        <time>2018-03-09T08:35:57Z</time>
      </trkpt>
      <trkpt lat="45.17879" lon="5.19744">
        <ele>563</ele>
        <time>2018-03-09T08:36:57Z</time>
      </trkpt>
      <trkpt lat="45.17982" lon="5.19705">
        <ele>566</ele>
        <time>2018-03-09T08:37:57Z</time>
      </trkpt>
      <trkpt lat="45.18038" lon="5.19693">
        <ele>567</ele>
        <time>2018-03-09T08:38:57Z</time>
      </trkpt>
      <trkpt lat="45.18072" lon="5.1969">
        <ele>566</ele>
        <time>2018-03-09T08:39:57Z</time>
      </trkpt>
      <trkpt lat="45.18132" lon="5.19689">
        <ele>564</ele>
        <time>2018-03-09T08:40:57Z</time>
      </trkpt>
      <trkpt lat="45.18142" lon="5.19678">
        <ele>565</ele>
        <time>2018-03-09T08:41:57Z</time>
      </trkpt>
      <trkpt lat="45.18173" lon="5.19658">
        <ele>567</ele>
        <time>2018-03-09T08:42:57Z</time>
      </trkpt>
      <trkpt lat="45.18196" lon="5.19653">
        <ele>566</ele>
        <time>2018-03-09T08:43:57Z</time>
      </trkpt>
      <trkpt lat="45.18213" lon="5.19658">
        <ele>565</ele>
        <time>2018-03-09T08:44:57Z</time>
      </trkpt>
      <trkpt lat="45.18231" lon="5.19655">
        <ele>564</ele>
        <time>2018-03-09T08:45:57Z</time>
      </trkpt>
      <trkpt lat="45.18252" lon="5.19636">
        <ele>566</ele>
        <time>2018-03-09T08:46:57Z</time>
      </trkpt>
      <trkpt lat="45.1833" lon="5.19606">
        <ele>563</ele>
        <time>2018-03-09T08:47:57Z</time>
      </trkpt>
      <trkpt lat="45.1838" lon="5.19603">
        <ele>558</ele>
        <time>2018-03-09T08:48:57Z</time>
      </trkpt>
      <trkpt lat="45.18451" lon="5.19586">
        <ele>548</ele>
        <time>2018-03-09T08:49:57Z</time>
      </trkpt>
      <trkpt lat="45.18473" lon="5.19587">
        <ele>543</ele>
        <time>2018-03-09T08:50:57Z</time>
      </trkpt>
      <trkpt lat="45.18489" lon="5.19597">
        <ele>539</ele>
        <time>2018-03-09T08:51:57Z</time>
      </trkpt>
      <trkpt lat="45.18462" lon="5.19633">
        <ele>541</ele>
        <time>2018-03-09T08:52:57Z</time>
      </trkpt>
      <trkpt lat="45.18439" lon="5.1966">
        <ele>542</ele>
        <time>2018-03-09T08:53:57Z</time>
      </trkpt>
      <trkpt lat="45.18422" lon="5.19695">
        <ele>535</ele>
        <time>2018-03-09T08:54:57Z</time>
      </trkpt>
      <trkpt lat="45.18402" lon="5.19747">
        <ele>522</ele>
        <time>2018-03-09T08:55:57Z</time>
      </trkpt>
      <trkpt lat="45.1838" lon="5.19779">
        <ele>517</ele>
        <time>2018-03-09T08:56:57Z</time>
      </trkpt>
      <trkpt lat="45.18353" lon="5.19798">
        <ele>515</ele>
        <time>2018-03-09T08:57:57Z</time>
      </trkpt>
      <trkpt lat="45.18343" lon="5.1982">
        <ele>510</ele>
        <time>2018-03-09T08:58:57Z</time>
      </trkpt>
      <trkpt lat="45.18334" lon="5.19875">
        <ele>501</ele>
        <time>2018-03-09T08:59:57Z</time>
      </trkpt>
      <trkpt lat="45.18323" lon="5.199">
        <ele>499</ele>
        <time>2018-03-09T09:00:57Z</time>
      </trkpt>
      <trkpt lat="45.18309" lon="5.19927">
        <ele>498</ele>
        <time>2018-03-09T09:01:57Z</time>
      </trkpt>
      <trkpt lat="45.1829" lon="5.19956">
        <ele>497</ele>
        <time>2018-03-09T09:02:57Z</time>
      </trkpt>
      <trkpt lat="45.18284" lon="5.1998">
        <ele>495</ele>
        <time>2018-03-09T09:03:57Z</time>
      </trkpt>
      <trkpt lat="45.18281" lon="5.19999">
        <ele>493</ele>
        <time>2018-03-09T09:04:57Z</time>
      </trkpt>
      <trkpt lat="45.18282" lon="5.20025">
        <ele>489</ele>
        <time>2018-03-09T09:05:57Z</time>
      </trkpt>
      <trkpt lat="45.18278" lon="5.2005">
        <ele>485</ele>
        <time>2018-03-09T09:06:57Z</time>
      </trkpt>
      <trkpt lat="45.18267" lon="5.20084">
        <ele>481</ele>
        <time>2018-03-09T09:07:57Z</time>
      </trkpt>
      <trkpt lat="45.18237" lon="5.20099">
        <ele>482</ele>
        <time>2018-03-09T09:08:57Z</time>
      </trkpt>
      <trkpt lat="45.18207" lon="5.20131">
        <ele>479</ele>
        <time>2018-03-09T09:09:57Z</time>
      </trkpt>
      <trkpt lat="45.1818" lon="5.20166">
        <ele>475</ele>
        <time>2018-03-09T09:10:57Z</time>
      </trkpt>
      <trkpt lat="45.18148" lon="5.20202">
        <ele>471</ele>
        <time>2018-03-09T09:11:57Z</time>
      </trkpt>
      <trkpt lat="45.18128" lon="5.20219">
        <ele>469</ele>
        <time>2018-03-09T09:12:57Z</time>
      </trkpt>
      <trkpt lat="45.18104" lon="5.20235">
        <ele>467</ele>
        <time>2018-03-09T09:13:57Z</time>
      </trkpt>
      <trkpt lat="45.18082" lon="5.20243">
        <ele>466</ele>
        <time>2018-03-09T09:14:57Z</time>
      </trkpt>
      <trkpt lat="45.18062" lon="5.2024">
        <ele>468</ele>
        <time>2018-03-09T09:15:57Z</time>
      </trkpt>
      <trkpt lat="45.18039" lon="5.2024">
        <ele>470</ele>
        <time>2018-03-09T09:16:57Z</time>
      </trkpt>
      <trkpt lat="45.18013" lon="5.20263">
        <ele>469</ele>
        <time>2018-03-09T09:17:57Z</time>
      </trkpt>
      <trkpt lat="45.1798" lon="5.20298">
        <ele>466</ele>
        <time>2018-03-09T09:18:57Z</time>
      </trkpt>
      <trkpt lat="45.17956" lon="5.20338">
        <ele>463</ele>
        <time>2018-03-09T09:19:57Z</time>
      </trkpt>
      <trkpt lat="45.17932" lon="5.2037">
        <ele>463</ele>
        <time>2018-03-09T09:20:57Z</time>
      </trkpt>
      <trkpt lat="45.17891" lon="5.20427">
        <ele>462</ele>
        <time>2018-03-09T09:21:57Z</time>
      </trkpt>
      <trkpt lat="45.17874" lon="5.20423">
        <ele>462</ele>
        <time>2018-03-09T09:22:57Z</time>
      </trkpt>
      <trkpt lat="45.17857" lon="5.2041">
        <ele>462</ele>
        <time>2018-03-09T09:23:57Z</time>
      </trkpt>
      <trkpt lat="45.17825" lon="5.20497">
        <ele>454</ele>
        <time>2018-03-09T09:24:57Z</time>
      </trkpt>
      <trkpt lat="45.17809" lon="5.20556">
        <ele>447</ele>
        <time>2018-03-09T09:25:57Z</time>
      </trkpt>
      <trkpt lat="45.17793" lon="5.20606">
        <ele>442</ele>
        <time>2018-03-09T09:26:57Z</time>
      </trkpt>
      <trkpt lat="45.17777" lon="5.20629">
        <ele>439</ele>
        <time>2018-03-09T09:27:57Z</time>
      </trkpt>
      <trkpt lat="45.1776" lon="5.20698">
        <ele>434</ele>
        <time>2018-03-09T09:28:57Z</time>
      </trkpt>
      <trkpt lat="45.1775" lon="5.20713">
        <ele>432</ele>
        <time>2018-03-09T09:29:57Z</time>
      </trkpt>
      <trkpt lat="45.17729" lon="5.20749">
        <ele>432</ele>
        <time>2018-03-09T09:30:57Z</time>
      </trkpt>
      <trkpt lat="45.17697" lon="5.20766">
        <ele>434</ele>
        <time>2018-03-09T09:31:57Z</time>
      </trkpt>
      <trkpt lat="45.17643" lon="5.20794">
        <ele>438</ele>
        <time>2018-03-09T09:32:57Z</time>
      </trkpt>
      <trkpt lat="45.17607" lon="5.20814">
        <ele>440</ele>
        <time>2018-03-09T09:33:57Z</time>
      </trkpt>
      <trkpt lat="45.17568" lon="5.20822">
        <ele>441</ele>
        <time>2018-03-09T09:34:57Z</time>
      </trkpt>
      <trkpt lat="45.17546" lon="5.20823">
        <ele>441</ele>
        <time>2018-03-09T09:35:57Z</time>
      </trkpt>
      <trkpt lat="45.17509" lon="5.2084">
        <ele>441</ele>
        <time>2018-03-09T09:36:57Z</time>
      </trkpt>
      <trkpt lat="45.1748" lon="5.20863">
        <ele>438</ele>
        <time>2018-03-09T09:37:57Z</time>
      </trkpt>
      <trkpt lat="45.17452" lon="5.20911">
        <ele>433</ele>
        <time>2018-03-09T09:38:57Z</time>
      </trkpt>
      <trkpt lat="45.17426" lon="5.20944">
        <ele>427</ele>
        <time>2018-03-09T09:39:57Z</time>
      </trkpt>
      <trkpt lat="45.174" lon="5.20984">
        <ele>422</ele>
        <time>2018-03-09T09:40:57Z</time>
      </trkpt>
      <trkpt lat="45.17375" lon="5.21038">
        <ele>418</ele>
        <time>2018-03-09T09:41:57Z</time>
      </trkpt>
      <trkpt lat="45.17354" lon="5.2109">
        <ele>418</ele>
        <time>2018-03-09T09:42:57Z</time>
      </trkpt>
      <trkpt lat="45.17333" lon="5.21138">
        <ele>418</ele>
        <time>2018-03-09T09:43:57Z</time>
      </trkpt>
      <trkpt lat="45.17297" lon="5.21196">
        <ele>418</ele>
        <time>2018-03-09T09:44:57Z</time>
      </trkpt>
      <trkpt lat="45.17266" lon="5.21247">
        <ele>419</ele>
        <time>2018-03-09T09:45:57Z</time>
      </trkpt>
      <trkpt lat="45.17234" lon="5.21287">
        <ele>418</ele>
        <time>2018-03-09T09:46:57Z</time>
      </trkpt>
      <trkpt lat="45.17208" lon="5.21319">
        <ele>416</ele>
        <time>2018-03-09T09:47:57Z</time>
      </trkpt>
      <trkpt lat="45.17194" lon="5.2135">
        <ele>415</ele>
        <time>2018-03-09T09:48:57Z</time>
      </trkpt>
      <trkpt lat="45.17195" lon="5.21384">
        <ele>413</ele>
        <time>2018-03-09T09:49:57Z</time>
      </trkpt>
      <trkpt lat="45.17207" lon="5.21401">
        <ele>413</ele>
        <time>2018-03-09T09:50:57Z</time>
      </trkpt>
      <trkpt lat="45.17224" lon="5.21424">
        <ele>412</ele>
        <time>2018-03-09T09:51:57Z</time>
      </trkpt>
      <trkpt lat="45.17228" lon="5.21454">
        <ele>413</ele>
        <time>2018-03-09T09:52:57Z</time>
      </trkpt>
      <trkpt lat="45.17227" lon="5.21494">
        <ele>413</ele>
        <time>2018-03-09T09:53:57Z</time>
      </trkpt>
      <trkpt lat="45.17209" lon="5.21527">
        <ele>410</ele>
        <time>2018-03-09T09:54:57Z</time>
      </trkpt>
      <trkpt lat="45.17191" lon="5.21548">
        <ele>407</ele>
        <time>2018-03-09T09:55:57Z</time>
      </trkpt>
      <trkpt lat="45.17173" lon="5.21591">
        <ele>404</ele>
        <time>2018-03-09T09:56:57Z</time>
      </trkpt>
      <trkpt lat="45.17163" lon="5.21638">
        <ele>398</ele>
        <time>2018-03-09T09:57:57Z</time>
      </trkpt>
      <trkpt lat="45.17168" lon="5.21659">
        <ele>395</ele>
        <time>2018-03-09T09:58:57Z</time>
      </trkpt>
      <trkpt lat="45.17179" lon="5.2168">
        <ele>389</ele>
        <time>2018-03-09T09:59:57Z</time>
      </trkpt>
      <trkpt lat="45.17192" lon="5.21676">
        <ele>387</ele>
        <time>2018-03-09T10:00:57Z</time>
      </trkpt>
      <trkpt lat="45.1721" lon="5.21651">
        <ele>390</ele>
        <time>2018-03-09T10:01:57Z</time>
      </trkpt>
      <trkpt lat="45.17247" lon="5.21636">
        <ele>390</ele>
        <time>2018-03-09T10:02:57Z</time>
      </trkpt>
      <trkpt lat="45.17282" lon="5.21609">
        <ele>387</ele>
        <time>2018-03-09T10:03:57Z</time>
      </trkpt>
      <trkpt lat="45.17305" lon="5.21577">
        <ele>388</ele>
        <time>2018-03-09T10:04:57Z</time>
      </trkpt>
      <trkpt lat="45.17328" lon="5.21545">
        <ele>388</ele>
        <time>2018-03-09T10:05:57Z</time>
      </trkpt>
      <trkpt lat="45.17345" lon="5.21517">
        <ele>390</ele>
        <time>2018-03-09T10:06:57Z</time>
      </trkpt>
      <trkpt lat="45.17363" lon="5.21502">
        <ele>387</ele>
        <time>2018-03-09T10:07:57Z</time>
      </trkpt>
      <trkpt lat="45.17378" lon="5.21488">
        <ele>385</ele>
        <time>2018-03-09T10:08:57Z</time>
      </trkpt>
      <trkpt lat="45.17384" lon="5.21467">
        <ele>387</ele>
        <time>2018-03-09T10:09:57Z</time>
      </trkpt>
      <trkpt lat="45.17397" lon="5.2145">
        <ele>388</ele>
        <time>2018-03-09T10:10:57Z</time>
      </trkpt>
      <trkpt lat="45.17411" lon="5.2144">
        <ele>388</ele>
        <time>2018-03-09T10:11:57Z</time>
      </trkpt>
      <trkpt lat="45.17434" lon="5.2143">
        <ele>386</ele>
        <time>2018-03-09T10:12:57Z</time>
      </trkpt>
      <trkpt lat="45.17457" lon="5.21419">
        <ele>384</ele>
        <time>2018-03-09T10:13:57Z</time>
      </trkpt>
      <trkpt lat="45.17475" lon="5.21407">
        <ele>382</ele>
        <time>2018-03-09T10:14:57Z</time>
      </trkpt>
      <trkpt lat="45.17487" lon="5.2139">
        <ele>382</ele>
        <time>2018-03-09T10:15:57Z</time>
      </trkpt>
      <trkpt lat="45.17499" lon="5.2139">
        <ele>380</ele>
        <time>2018-03-09T10:16:57Z</time>
      </trkpt>
      <trkpt lat="45.17504" lon="5.21393">
        <ele>379</ele>
        <time>2018-03-09T10:17:57Z</time>
      </trkpt>
      <trkpt lat="45.17489" lon="5.21408">
        <ele>378</ele>
        <time>2018-03-09T10:18:57Z</time>
      </trkpt>
      <trkpt lat="45.17465" lon="5.21432">
        <ele>379</ele>
        <time>2018-03-09T10:19:57Z</time>
      </trkpt>
      <trkpt lat="45.17434" lon="5.21465">
        <ele>377</ele>
        <time>2018-03-09T10:20:57Z</time>
      </trkpt>
      <trkpt lat="45.17417" lon="5.21486">
        <ele>373</ele>
        <time>2018-03-09T10:21:57Z</time>
      </trkpt>
      <trkpt lat="45.1741" lon="5.21504">
        <ele>371</ele>
        <time>2018-03-09T10:22:57Z</time>
      </trkpt>
      <trkpt lat="45.17412" lon="5.21523">
        <ele>367</ele>
        <time>2018-03-09T10:23:57Z</time>
      </trkpt>
      <trkpt lat="45.17424" lon="5.2153">
        <ele>364</ele>
        <time>2018-03-09T10:24:57Z</time>
      </trkpt>
      <trkpt lat="45.17438" lon="5.21534">
        <ele>364</ele>
        <time>2018-03-09T10:25:57Z</time>
      </trkpt>
      <trkpt lat="45.1746" lon="5.21539">
        <ele>363</ele>
        <time>2018-03-09T10:26:57Z</time>
      </trkpt>
      <trkpt lat="45.17459" lon="5.21566">
        <ele>361</ele>
        <time>2018-03-09T10:27:57Z</time>
      </trkpt>
      <trkpt lat="45.17411" lon="5.21627">
        <ele>358</ele>
        <time>2018-03-09T10:28:57Z</time>
      </trkpt>
      <trkpt lat="45.17388" lon="5.21666">
        <ele>357</ele>
        <time>2018-03-09T10:29:57Z</time>
      </trkpt>
      <trkpt lat="45.17317" lon="5.21766">
        <ele>353</ele>
        <time>2018-03-09T10:30:57Z</time>
      </trkpt>
      <trkpt lat="45.17321" lon="5.21795">
        <ele>353</ele>
        <time>2018-03-09T10:31:57Z</time>
      </trkpt>
      <trkpt lat="45.17331" lon="5.2182">
        <ele>353</ele>
        <time>2018-03-09T10:32:57Z</time>
      </trkpt>
      <trkpt lat="45.17342" lon="5.21849">
        <ele>355</ele>
        <time>2018-03-09T10:33:57Z</time>
      </trkpt>
      <trkpt lat="45.17355" lon="5.21822">
        <ele>357</ele>
        <time>2018-03-09T10:34:57Z</time>
      </trkpt>
      <trkpt lat="45.17384" lon="5.21846">
        <ele>362</ele>
        <time>2018-03-09T10:35:57Z</time>
      </trkpt>
      <trkpt lat="45.17409" lon="5.21858">
        <ele>366</ele>
        <time>2018-03-09T10:36:57Z</time>
      </trkpt>
      <trkpt lat="45.17409" lon="5.21912">
        <ele>368</ele>
        <time>2018-03-09T10:37:57Z</time>
      </trkpt>
    </trkseg>
  </trk>
</gpx>